<?xml version="1.0" encoding="UTF-8"?>
<gpx version="1.1" creator="https://www.youtrack.es" xsi:schemaLocation="http://www.topografix.com/GPX/1/1 http://www.topografix.com/GPX/1/1/gpx.xsd http://www.garmin.com/xmlschemas/GpxExtensions/v3 http://www.garmin.com/xmlschemas/GpxExtensionsv3.xsd http://www.garmin.com/xmlschemas/TrackPointExtension/v1 http://www.garmin.com/xmlschemas/TrackPointExtensionv1.xsd" xmlns:gpxtpx="http://www.garmin.com/xmlschemas/TrackPointExtension/v1" xmlns:gpxx="http://www.garmin.com/xmlschemas/GpxExtensions/v3" xmlns:xsi="http://www.w3.org/2001/XMLSchema-instance">
  <metadata>
    <link href="https://www.youtrack.es">
      <text>YouTrack.es</text>
    </link>
    <time>2026-05-08T06:58:45Z</time>
  </metadata>
  <trk>
    <src>https://www.youtrack.es</src>
    <link href="https://www.youtrack.es/ruta/35590-montagarri">
      <text>YouTrack.es</text>
    </link>
    <trkseg>
      <trkpt lat="42.757167" lon="0.996523">
        <ele>1722.0</ele>
        <time>2022-08-21T07:46:43Z</time>
      </trkpt>
      <trkpt lat="42.757167" lon="0.996522">
        <ele>1722.0</ele>
        <time>2022-08-21T07:46:44Z</time>
      </trkpt>
      <trkpt lat="42.757232" lon="0.996416">
        <ele>1721.9</ele>
        <time>2022-08-21T07:46:57Z</time>
      </trkpt>
      <trkpt lat="42.757284" lon="0.996305">
        <ele>1721.9</ele>
        <time>2022-08-21T07:47:43Z</time>
      </trkpt>
      <trkpt lat="42.757364" lon="0.996228">
        <ele>1721.3</ele>
        <time>2022-08-21T07:47:53Z</time>
      </trkpt>
      <trkpt lat="42.757401" lon="0.996111">
        <ele>1721.1</ele>
        <time>2022-08-21T07:48:10Z</time>
      </trkpt>
      <trkpt lat="42.757440" lon="0.995995">
        <ele>1722.0</ele>
        <time>2022-08-21T07:48:23Z</time>
      </trkpt>
      <trkpt lat="42.757493" lon="0.995896">
        <ele>1723.4</ele>
        <time>2022-08-21T07:48:38Z</time>
      </trkpt>
      <trkpt lat="42.757550" lon="0.995763">
        <ele>1724.1</ele>
        <time>2022-08-21T07:48:49Z</time>
      </trkpt>
      <trkpt lat="42.757572" lon="0.995636">
        <ele>1722.0</ele>
        <time>2022-08-21T07:48:57Z</time>
      </trkpt>
      <trkpt lat="42.757589" lon="0.995497">
        <ele>1720.3</ele>
        <time>2022-08-21T07:49:09Z</time>
      </trkpt>
      <trkpt lat="42.757654" lon="0.995318">
        <ele>1718.0</ele>
        <time>2022-08-21T07:49:23Z</time>
      </trkpt>
      <trkpt lat="42.757711" lon="0.995210">
        <ele>1711.1</ele>
        <time>2022-08-21T07:49:57Z</time>
      </trkpt>
      <trkpt lat="42.757747" lon="0.995097">
        <ele>1710.0</ele>
        <time>2022-08-21T07:50:07Z</time>
      </trkpt>
      <trkpt lat="42.757826" lon="0.995023">
        <ele>1711.0</ele>
        <time>2022-08-21T07:50:18Z</time>
      </trkpt>
      <trkpt lat="42.757904" lon="0.995105">
        <ele>1710.6</ele>
        <time>2022-08-21T07:50:39Z</time>
      </trkpt>
      <trkpt lat="42.757915" lon="0.995233">
        <ele>1710.8</ele>
        <time>2022-08-21T07:51:15Z</time>
      </trkpt>
      <trkpt lat="42.757911" lon="0.995108">
        <ele>1709.0</ele>
        <time>2022-08-21T07:51:44Z</time>
      </trkpt>
      <trkpt lat="42.758030" lon="0.995249">
        <ele>1704.0</ele>
        <time>2022-08-21T07:52:15Z</time>
      </trkpt>
      <trkpt lat="42.758099" lon="0.995376">
        <ele>1703.5</ele>
        <time>2022-08-21T07:52:23Z</time>
      </trkpt>
      <trkpt lat="42.758227" lon="0.995420">
        <ele>1702.5</ele>
        <time>2022-08-21T07:52:29Z</time>
      </trkpt>
      <trkpt lat="42.758328" lon="0.995361">
        <ele>1700.7</ele>
        <time>2022-08-21T07:52:42Z</time>
      </trkpt>
      <trkpt lat="42.758390" lon="0.995525">
        <ele>1697.0</ele>
        <time>2022-08-21T07:53:00Z</time>
      </trkpt>
      <trkpt lat="42.758492" lon="0.995731">
        <ele>1697.0</ele>
        <time>2022-08-21T07:53:13Z</time>
      </trkpt>
      <trkpt lat="42.758564" lon="0.995946">
        <ele>1696.0</ele>
        <time>2022-08-21T07:53:32Z</time>
      </trkpt>
      <trkpt lat="42.758770" lon="0.996240">
        <ele>1693.0</ele>
        <time>2022-08-21T07:54:13Z</time>
      </trkpt>
      <trkpt lat="42.758992" lon="0.996390">
        <ele>1691.6</ele>
        <time>2022-08-21T07:54:31Z</time>
      </trkpt>
      <trkpt lat="42.758874" lon="0.996461">
        <ele>1690.2</ele>
        <time>2022-08-21T07:54:34Z</time>
      </trkpt>
      <trkpt lat="42.758706" lon="0.996665">
        <ele>1688.0</ele>
        <time>2022-08-21T07:54:55Z</time>
      </trkpt>
      <trkpt lat="42.758694" lon="0.996947">
        <ele>1686.0</ele>
        <time>2022-08-21T07:55:07Z</time>
      </trkpt>
      <trkpt lat="42.758772" lon="0.997036">
        <ele>1686.1</ele>
        <time>2022-08-21T07:55:15Z</time>
      </trkpt>
      <trkpt lat="42.758836" lon="0.996940">
        <ele>1680.5</ele>
        <time>2022-08-21T07:55:42Z</time>
      </trkpt>
      <trkpt lat="42.758827" lon="0.996803">
        <ele>1678.0</ele>
        <time>2022-08-21T07:55:51Z</time>
      </trkpt>
      <trkpt lat="42.758878" lon="0.996686">
        <ele>1678.7</ele>
        <time>2022-08-21T07:56:00Z</time>
      </trkpt>
      <trkpt lat="42.758929" lon="0.996578">
        <ele>1678.0</ele>
        <time>2022-08-21T07:56:11Z</time>
      </trkpt>
      <trkpt lat="42.758987" lon="0.996474">
        <ele>1676.4</ele>
        <time>2022-08-21T07:56:24Z</time>
      </trkpt>
      <trkpt lat="42.759006" lon="0.996343">
        <ele>1675.7</ele>
        <time>2022-08-21T07:56:31Z</time>
      </trkpt>
      <trkpt lat="42.759000" lon="0.996206">
        <ele>1674.1</ele>
        <time>2022-08-21T07:56:41Z</time>
      </trkpt>
      <trkpt lat="42.759010" lon="0.996076">
        <ele>1673.2</ele>
        <time>2022-08-21T07:56:49Z</time>
      </trkpt>
      <trkpt lat="42.759002" lon="0.995949">
        <ele>1672.9</ele>
        <time>2022-08-21T07:56:58Z</time>
      </trkpt>
      <trkpt lat="42.759043" lon="0.995828">
        <ele>1672.2</ele>
        <time>2022-08-21T07:57:30Z</time>
      </trkpt>
      <trkpt lat="42.759059" lon="0.995693">
        <ele>1671.6</ele>
        <time>2022-08-21T07:57:38Z</time>
      </trkpt>
      <trkpt lat="42.759069" lon="0.995556">
        <ele>1670.8</ele>
        <time>2022-08-21T07:57:47Z</time>
      </trkpt>
      <trkpt lat="42.759090" lon="0.995437">
        <ele>1670.1</ele>
        <time>2022-08-21T07:57:56Z</time>
      </trkpt>
      <trkpt lat="42.759054" lon="0.995322">
        <ele>1668.9</ele>
        <time>2022-08-21T07:59:46Z</time>
      </trkpt>
      <trkpt lat="42.759037" lon="0.995167">
        <ele>1669.0</ele>
        <time>2022-08-21T07:59:55Z</time>
      </trkpt>
      <trkpt lat="42.759000" lon="0.995055">
        <ele>1668.3</ele>
        <time>2022-08-21T08:00:03Z</time>
      </trkpt>
      <trkpt lat="42.758964" lon="0.994941">
        <ele>1668.4</ele>
        <time>2022-08-21T08:00:12Z</time>
      </trkpt>
      <trkpt lat="42.758950" lon="0.994817">
        <ele>1668.5</ele>
        <time>2022-08-21T08:00:37Z</time>
      </trkpt>
      <trkpt lat="42.759038" lon="0.994741">
        <ele>1668.8</ele>
        <time>2022-08-21T08:00:53Z</time>
      </trkpt>
      <trkpt lat="42.759124" lon="0.994672">
        <ele>1669.2</ele>
        <time>2022-08-21T08:01:03Z</time>
      </trkpt>
      <trkpt lat="42.759215" lon="0.994615">
        <ele>1669.2</ele>
        <time>2022-08-21T08:01:18Z</time>
      </trkpt>
      <trkpt lat="42.759295" lon="0.994555">
        <ele>1669.6</ele>
        <time>2022-08-21T08:01:29Z</time>
      </trkpt>
      <trkpt lat="42.759341" lon="0.994445">
        <ele>1670.3</ele>
        <time>2022-08-21T08:01:43Z</time>
      </trkpt>
      <trkpt lat="42.759288" lon="0.994550">
        <ele>1670.3</ele>
        <time>2022-08-21T08:02:22Z</time>
      </trkpt>
      <trkpt lat="42.759371" lon="0.994606">
        <ele>1670.0</ele>
        <time>2022-08-21T08:02:39Z</time>
      </trkpt>
      <trkpt lat="42.759449" lon="0.994524">
        <ele>1671.0</ele>
        <time>2022-08-21T08:02:54Z</time>
      </trkpt>
      <trkpt lat="42.759220" lon="0.994531">
        <ele>1670.0</ele>
        <time>2022-08-21T08:03:07Z</time>
      </trkpt>
      <trkpt lat="42.759290" lon="0.994627">
        <ele>1670.5</ele>
        <time>2022-08-21T08:03:15Z</time>
      </trkpt>
      <trkpt lat="42.759395" lon="0.994580">
        <ele>1670.8</ele>
        <time>2022-08-21T08:03:18Z</time>
      </trkpt>
      <trkpt lat="42.759478" lon="0.994665">
        <ele>1670.8</ele>
        <time>2022-08-21T08:03:28Z</time>
      </trkpt>
      <trkpt lat="42.759551" lon="0.994758">
        <ele>1670.0</ele>
        <time>2022-08-21T08:03:40Z</time>
      </trkpt>
      <trkpt lat="42.759508" lon="0.994876">
        <ele>1670.7</ele>
        <time>2022-08-21T08:04:06Z</time>
      </trkpt>
      <trkpt lat="42.759411" lon="0.994918">
        <ele>1671.4</ele>
        <time>2022-08-21T08:04:28Z</time>
      </trkpt>
      <trkpt lat="42.759406" lon="0.995055">
        <ele>1671.0</ele>
        <time>2022-08-21T08:04:34Z</time>
      </trkpt>
      <trkpt lat="42.759486" lon="0.994955">
        <ele>1670.6</ele>
        <time>2022-08-21T08:04:53Z</time>
      </trkpt>
      <trkpt lat="42.759492" lon="0.994817">
        <ele>1670.9</ele>
        <time>2022-08-21T08:05:05Z</time>
      </trkpt>
      <trkpt lat="42.759402" lon="0.994768">
        <ele>1670.8</ele>
        <time>2022-08-21T08:05:08Z</time>
      </trkpt>
      <trkpt lat="42.759359" lon="0.994652">
        <ele>1670.6</ele>
        <time>2022-08-21T08:05:12Z</time>
      </trkpt>
      <trkpt lat="42.759261" lon="0.994604">
        <ele>1670.4</ele>
        <time>2022-08-21T08:05:31Z</time>
      </trkpt>
      <trkpt lat="42.759165" lon="0.994611">
        <ele>1670.0</ele>
        <time>2022-08-21T08:05:47Z</time>
      </trkpt>
      <trkpt lat="42.759086" lon="0.994671">
        <ele>1669.6</ele>
        <time>2022-08-21T08:07:11Z</time>
      </trkpt>
      <trkpt lat="42.758995" lon="0.994750">
        <ele>1669.6</ele>
        <time>2022-08-21T08:07:29Z</time>
      </trkpt>
      <trkpt lat="42.758964" lon="0.994874">
        <ele>1669.4</ele>
        <time>2022-08-21T08:07:40Z</time>
      </trkpt>
      <trkpt lat="42.759000" lon="0.995002">
        <ele>1669.2</ele>
        <time>2022-08-21T08:07:57Z</time>
      </trkpt>
      <trkpt lat="42.759050" lon="0.995115">
        <ele>1668.9</ele>
        <time>2022-08-21T08:08:05Z</time>
      </trkpt>
      <trkpt lat="42.759123" lon="0.995199">
        <ele>1668.3</ele>
        <time>2022-08-21T08:08:14Z</time>
      </trkpt>
      <trkpt lat="42.759178" lon="0.995315">
        <ele>1668.1</ele>
        <time>2022-08-21T08:09:42Z</time>
      </trkpt>
      <trkpt lat="42.759209" lon="0.995433">
        <ele>1667.9</ele>
        <time>2022-08-21T08:09:53Z</time>
      </trkpt>
      <trkpt lat="42.759217" lon="0.995566">
        <ele>1667.8</ele>
        <time>2022-08-21T08:10:36Z</time>
      </trkpt>
      <trkpt lat="42.759230" lon="0.995688">
        <ele>1668.0</ele>
        <time>2022-08-21T08:10:44Z</time>
      </trkpt>
      <trkpt lat="42.759275" lon="0.995795">
        <ele>1668.3</ele>
        <time>2022-08-21T08:10:52Z</time>
      </trkpt>
      <trkpt lat="42.759291" lon="0.995918">
        <ele>1668.9</ele>
        <time>2022-08-21T08:11:01Z</time>
      </trkpt>
      <trkpt lat="42.759311" lon="0.996049">
        <ele>1669.3</ele>
        <time>2022-08-21T08:11:47Z</time>
      </trkpt>
      <trkpt lat="42.759324" lon="0.996172">
        <ele>1669.5</ele>
        <time>2022-08-21T08:11:55Z</time>
      </trkpt>
      <trkpt lat="42.759320" lon="0.996298">
        <ele>1669.6</ele>
        <time>2022-08-21T08:12:02Z</time>
      </trkpt>
      <trkpt lat="42.759351" lon="0.996414">
        <ele>1669.8</ele>
        <time>2022-08-21T08:12:10Z</time>
      </trkpt>
      <trkpt lat="42.759374" lon="0.996546">
        <ele>1670.3</ele>
        <time>2022-08-21T08:12:17Z</time>
      </trkpt>
      <trkpt lat="42.759420" lon="0.996681">
        <ele>1670.2</ele>
        <time>2022-08-21T08:12:27Z</time>
      </trkpt>
      <trkpt lat="42.759442" lon="0.996807">
        <ele>1670.0</ele>
        <time>2022-08-21T08:12:34Z</time>
      </trkpt>
      <trkpt lat="42.759433" lon="0.996940">
        <ele>1669.8</ele>
        <time>2022-08-21T08:12:45Z</time>
      </trkpt>
      <trkpt lat="42.759451" lon="0.997066">
        <ele>1670.6</ele>
        <time>2022-08-21T08:13:00Z</time>
      </trkpt>
      <trkpt lat="42.759439" lon="0.997188">
        <ele>1670.4</ele>
        <time>2022-08-21T08:13:46Z</time>
      </trkpt>
      <trkpt lat="42.759460" lon="0.997317">
        <ele>1670.5</ele>
        <time>2022-08-21T08:13:55Z</time>
      </trkpt>
      <trkpt lat="42.759498" lon="0.997435">
        <ele>1670.4</ele>
        <time>2022-08-21T08:14:05Z</time>
      </trkpt>
      <trkpt lat="42.759525" lon="0.997556">
        <ele>1670.0</ele>
        <time>2022-08-21T08:14:31Z</time>
      </trkpt>
      <trkpt lat="42.759550" lon="0.997679">
        <ele>1670.5</ele>
        <time>2022-08-21T08:14:40Z</time>
      </trkpt>
      <trkpt lat="42.759561" lon="0.997804">
        <ele>1671.6</ele>
        <time>2022-08-21T08:14:50Z</time>
      </trkpt>
      <trkpt lat="42.759566" lon="0.997936">
        <ele>1672.5</ele>
        <time>2022-08-21T08:14:59Z</time>
      </trkpt>
      <trkpt lat="42.759566" lon="0.998067">
        <ele>1673.3</ele>
        <time>2022-08-21T08:15:10Z</time>
      </trkpt>
      <trkpt lat="42.759571" lon="0.998193">
        <ele>1673.5</ele>
        <time>2022-08-21T08:15:20Z</time>
      </trkpt>
      <trkpt lat="42.759598" lon="0.998322">
        <ele>1673.3</ele>
        <time>2022-08-21T08:15:28Z</time>
      </trkpt>
      <trkpt lat="42.759649" lon="0.998449">
        <ele>1673.7</ele>
        <time>2022-08-21T08:15:37Z</time>
      </trkpt>
      <trkpt lat="42.759718" lon="0.998542">
        <ele>1674.2</ele>
        <time>2022-08-21T08:15:45Z</time>
      </trkpt>
      <trkpt lat="42.759752" lon="0.998671">
        <ele>1674.5</ele>
        <time>2022-08-21T08:15:56Z</time>
      </trkpt>
      <trkpt lat="42.759793" lon="0.998792">
        <ele>1674.1</ele>
        <time>2022-08-21T08:16:05Z</time>
      </trkpt>
      <trkpt lat="42.759830" lon="0.998907">
        <ele>1673.6</ele>
        <time>2022-08-21T08:16:13Z</time>
      </trkpt>
      <trkpt lat="42.759868" lon="0.999022">
        <ele>1673.6</ele>
        <time>2022-08-21T08:16:21Z</time>
      </trkpt>
      <trkpt lat="42.759933" lon="0.999123">
        <ele>1674.0</ele>
        <time>2022-08-21T08:16:30Z</time>
      </trkpt>
      <trkpt lat="42.759985" lon="0.999239">
        <ele>1674.5</ele>
        <time>2022-08-21T08:16:40Z</time>
      </trkpt>
      <trkpt lat="42.760065" lon="0.999342">
        <ele>1674.7</ele>
        <time>2022-08-21T08:16:51Z</time>
      </trkpt>
      <trkpt lat="42.760124" lon="0.999436">
        <ele>1674.1</ele>
        <time>2022-08-21T08:17:00Z</time>
      </trkpt>
      <trkpt lat="42.760183" lon="0.999528">
        <ele>1673.2</ele>
        <time>2022-08-21T08:17:07Z</time>
      </trkpt>
      <trkpt lat="42.760213" lon="0.999654">
        <ele>1672.5</ele>
        <time>2022-08-21T08:17:14Z</time>
      </trkpt>
      <trkpt lat="42.760249" lon="0.999774">
        <ele>1671.8</ele>
        <time>2022-08-21T08:17:22Z</time>
      </trkpt>
      <trkpt lat="42.760279" lon="0.999896">
        <ele>1671.3</ele>
        <time>2022-08-21T08:17:30Z</time>
      </trkpt>
      <trkpt lat="42.760324" lon="1.000031">
        <ele>1670.7</ele>
        <time>2022-08-21T08:17:38Z</time>
      </trkpt>
      <trkpt lat="42.760368" lon="1.000144">
        <ele>1670.6</ele>
        <time>2022-08-21T08:17:47Z</time>
      </trkpt>
      <trkpt lat="42.760377" lon="1.000267">
        <ele>1669.9</ele>
        <time>2022-08-21T08:17:54Z</time>
      </trkpt>
      <trkpt lat="42.760374" lon="1.000409">
        <ele>1669.3</ele>
        <time>2022-08-21T08:18:04Z</time>
      </trkpt>
      <trkpt lat="42.760396" lon="1.000535">
        <ele>1668.9</ele>
        <time>2022-08-21T08:18:14Z</time>
      </trkpt>
      <trkpt lat="42.760422" lon="1.000656">
        <ele>1668.0</ele>
        <time>2022-08-21T08:18:23Z</time>
      </trkpt>
      <trkpt lat="42.760449" lon="1.000777">
        <ele>1667.1</ele>
        <time>2022-08-21T08:18:32Z</time>
      </trkpt>
      <trkpt lat="42.760423" lon="1.000919">
        <ele>1666.5</ele>
        <time>2022-08-21T08:18:39Z</time>
      </trkpt>
      <trkpt lat="42.760432" lon="1.001043">
        <ele>1666.2</ele>
        <time>2022-08-21T08:18:48Z</time>
      </trkpt>
      <trkpt lat="42.760451" lon="1.001177">
        <ele>1665.8</ele>
        <time>2022-08-21T08:18:55Z</time>
      </trkpt>
      <trkpt lat="42.760490" lon="1.001292">
        <ele>1665.1</ele>
        <time>2022-08-21T08:19:30Z</time>
      </trkpt>
      <trkpt lat="42.760543" lon="1.001400">
        <ele>1664.4</ele>
        <time>2022-08-21T08:19:37Z</time>
      </trkpt>
      <trkpt lat="42.760565" lon="1.001524">
        <ele>1663.5</ele>
        <time>2022-08-21T08:19:46Z</time>
      </trkpt>
      <trkpt lat="42.760588" lon="1.001652">
        <ele>1662.4</ele>
        <time>2022-08-21T08:19:55Z</time>
      </trkpt>
      <trkpt lat="42.760645" lon="1.001761">
        <ele>1661.3</ele>
        <time>2022-08-21T08:20:14Z</time>
      </trkpt>
      <trkpt lat="42.760696" lon="1.001867">
        <ele>1660.4</ele>
        <time>2022-08-21T08:20:27Z</time>
      </trkpt>
      <trkpt lat="42.760747" lon="1.001982">
        <ele>1659.9</ele>
        <time>2022-08-21T08:20:36Z</time>
      </trkpt>
      <trkpt lat="42.760791" lon="1.002093">
        <ele>1659.7</ele>
        <time>2022-08-21T08:21:00Z</time>
      </trkpt>
      <trkpt lat="42.760789" lon="1.002218">
        <ele>1659.8</ele>
        <time>2022-08-21T08:21:09Z</time>
      </trkpt>
      <trkpt lat="42.760789" lon="1.002344">
        <ele>1659.6</ele>
        <time>2022-08-21T08:21:18Z</time>
      </trkpt>
      <trkpt lat="42.760782" lon="1.002479">
        <ele>1659.9</ele>
        <time>2022-08-21T08:21:28Z</time>
      </trkpt>
      <trkpt lat="42.760762" lon="1.002599">
        <ele>1659.7</ele>
        <time>2022-08-21T08:21:42Z</time>
      </trkpt>
      <trkpt lat="42.760716" lon="1.002709">
        <ele>1659.2</ele>
        <time>2022-08-21T08:21:50Z</time>
      </trkpt>
      <trkpt lat="42.760712" lon="1.002836">
        <ele>1658.3</ele>
        <time>2022-08-21T08:21:58Z</time>
      </trkpt>
      <trkpt lat="42.760707" lon="1.002974">
        <ele>1658.3</ele>
        <time>2022-08-21T08:22:07Z</time>
      </trkpt>
      <trkpt lat="42.760701" lon="1.003108">
        <ele>1658.2</ele>
        <time>2022-08-21T08:22:16Z</time>
      </trkpt>
      <trkpt lat="42.760708" lon="1.003243">
        <ele>1657.9</ele>
        <time>2022-08-21T08:22:26Z</time>
      </trkpt>
      <trkpt lat="42.760717" lon="1.003376">
        <ele>1657.2</ele>
        <time>2022-08-21T08:22:36Z</time>
      </trkpt>
      <trkpt lat="42.760707" lon="1.003503">
        <ele>1655.8</ele>
        <time>2022-08-21T08:23:05Z</time>
      </trkpt>
      <trkpt lat="42.760783" lon="1.003569">
        <ele>1653.1</ele>
        <time>2022-08-21T08:23:42Z</time>
      </trkpt>
      <trkpt lat="42.760863" lon="1.003626">
        <ele>1651.0</ele>
        <time>2022-08-21T08:23:53Z</time>
      </trkpt>
      <trkpt lat="42.760932" lon="1.003737">
        <ele>1647.8</ele>
        <time>2022-08-21T08:24:05Z</time>
      </trkpt>
      <trkpt lat="42.760991" lon="1.003846">
        <ele>1645.7</ele>
        <time>2022-08-21T08:24:15Z</time>
      </trkpt>
      <trkpt lat="42.761008" lon="1.003975">
        <ele>1643.5</ele>
        <time>2022-08-21T08:24:26Z</time>
      </trkpt>
      <trkpt lat="42.761080" lon="1.004073">
        <ele>1643.0</ele>
        <time>2022-08-21T08:25:00Z</time>
      </trkpt>
      <trkpt lat="42.761142" lon="1.004172">
        <ele>1642.9</ele>
        <time>2022-08-21T08:25:24Z</time>
      </trkpt>
      <trkpt lat="42.761151" lon="1.004299">
        <ele>1643.0</ele>
        <time>2022-08-21T08:25:33Z</time>
      </trkpt>
      <trkpt lat="42.761162" lon="1.004431">
        <ele>1642.9</ele>
        <time>2022-08-21T08:25:42Z</time>
      </trkpt>
      <trkpt lat="42.761170" lon="1.004558">
        <ele>1643.5</ele>
        <time>2022-08-21T08:25:53Z</time>
      </trkpt>
      <trkpt lat="42.761169" lon="1.004682">
        <ele>1643.2</ele>
        <time>2022-08-21T08:26:02Z</time>
      </trkpt>
      <trkpt lat="42.761171" lon="1.004805">
        <ele>1643.4</ele>
        <time>2022-08-21T08:26:10Z</time>
      </trkpt>
      <trkpt lat="42.761154" lon="1.004926">
        <ele>1643.2</ele>
        <time>2022-08-21T08:26:25Z</time>
      </trkpt>
      <trkpt lat="42.761133" lon="1.005063">
        <ele>1643.1</ele>
        <time>2022-08-21T08:26:33Z</time>
      </trkpt>
      <trkpt lat="42.761110" lon="1.005205">
        <ele>1642.8</ele>
        <time>2022-08-21T08:26:42Z</time>
      </trkpt>
      <trkpt lat="42.761074" lon="1.005337">
        <ele>1642.6</ele>
        <time>2022-08-21T08:26:52Z</time>
      </trkpt>
      <trkpt lat="42.761020" lon="1.005451">
        <ele>1642.6</ele>
        <time>2022-08-21T08:27:01Z</time>
      </trkpt>
      <trkpt lat="42.760985" lon="1.005565">
        <ele>1642.5</ele>
        <time>2022-08-21T08:27:10Z</time>
      </trkpt>
      <trkpt lat="42.760943" lon="1.005684">
        <ele>1642.3</ele>
        <time>2022-08-21T08:27:21Z</time>
      </trkpt>
      <trkpt lat="42.760905" lon="1.005795">
        <ele>1641.9</ele>
        <time>2022-08-21T08:27:28Z</time>
      </trkpt>
      <trkpt lat="42.760857" lon="1.005906">
        <ele>1641.6</ele>
        <time>2022-08-21T08:27:36Z</time>
      </trkpt>
      <trkpt lat="42.760826" lon="1.006027">
        <ele>1640.7</ele>
        <time>2022-08-21T08:27:49Z</time>
      </trkpt>
      <trkpt lat="42.760790" lon="1.006141">
        <ele>1639.9</ele>
        <time>2022-08-21T08:27:55Z</time>
      </trkpt>
      <trkpt lat="42.760758" lon="1.006268">
        <ele>1639.1</ele>
        <time>2022-08-21T08:28:05Z</time>
      </trkpt>
      <trkpt lat="42.760720" lon="1.006394">
        <ele>1638.4</ele>
        <time>2022-08-21T08:28:14Z</time>
      </trkpt>
      <trkpt lat="42.760676" lon="1.006504">
        <ele>1637.5</ele>
        <time>2022-08-21T08:28:23Z</time>
      </trkpt>
      <trkpt lat="42.760589" lon="1.006565">
        <ele>1637.1</ele>
        <time>2022-08-21T08:28:31Z</time>
      </trkpt>
      <trkpt lat="42.760543" lon="1.006678">
        <ele>1636.7</ele>
        <time>2022-08-21T08:28:40Z</time>
      </trkpt>
      <trkpt lat="42.760620" lon="1.006747">
        <ele>1633.0</ele>
        <time>2022-08-21T08:29:18Z</time>
      </trkpt>
      <trkpt lat="42.760709" lon="1.006728">
        <ele>1633.1</ele>
        <time>2022-08-21T08:30:35Z</time>
      </trkpt>
      <trkpt lat="42.760623" lon="1.006763">
        <ele>1633.5</ele>
        <time>2022-08-21T08:30:57Z</time>
      </trkpt>
      <trkpt lat="42.760531" lon="1.006810">
        <ele>1635.0</ele>
        <time>2022-08-21T08:32:50Z</time>
      </trkpt>
      <trkpt lat="42.760491" lon="1.006950">
        <ele>1634.8</ele>
        <time>2022-08-21T08:33:17Z</time>
      </trkpt>
      <trkpt lat="42.760489" lon="1.007083">
        <ele>1635.3</ele>
        <time>2022-08-21T08:33:26Z</time>
      </trkpt>
      <trkpt lat="42.760494" lon="1.007222">
        <ele>1635.5</ele>
        <time>2022-08-21T08:33:36Z</time>
      </trkpt>
      <trkpt lat="42.760459" lon="1.007339">
        <ele>1635.6</ele>
        <time>2022-08-21T08:33:42Z</time>
      </trkpt>
      <trkpt lat="42.760483" lon="1.007459">
        <ele>1636.0</ele>
        <time>2022-08-21T08:33:54Z</time>
      </trkpt>
      <trkpt lat="42.760508" lon="1.007588">
        <ele>1635.5</ele>
        <time>2022-08-21T08:34:02Z</time>
      </trkpt>
      <trkpt lat="42.760490" lon="1.007709">
        <ele>1635.0</ele>
        <time>2022-08-21T08:34:12Z</time>
      </trkpt>
      <trkpt lat="42.760481" lon="1.007843">
        <ele>1634.8</ele>
        <time>2022-08-21T08:34:21Z</time>
      </trkpt>
      <trkpt lat="42.760482" lon="1.007981">
        <ele>1634.5</ele>
        <time>2022-08-21T08:34:34Z</time>
      </trkpt>
      <trkpt lat="42.760451" lon="1.008096">
        <ele>1634.4</ele>
        <time>2022-08-21T08:34:40Z</time>
      </trkpt>
      <trkpt lat="42.760426" lon="1.008232">
        <ele>1634.4</ele>
        <time>2022-08-21T08:34:49Z</time>
      </trkpt>
      <trkpt lat="42.760388" lon="1.008353">
        <ele>1634.4</ele>
        <time>2022-08-21T08:34:57Z</time>
      </trkpt>
      <trkpt lat="42.760367" lon="1.008490">
        <ele>1634.6</ele>
        <time>2022-08-21T08:35:07Z</time>
      </trkpt>
      <trkpt lat="42.760338" lon="1.008612">
        <ele>1634.7</ele>
        <time>2022-08-21T08:35:14Z</time>
      </trkpt>
      <trkpt lat="42.760322" lon="1.008763">
        <ele>1633.8</ele>
        <time>2022-08-21T08:35:23Z</time>
      </trkpt>
      <trkpt lat="42.760294" lon="1.008889">
        <ele>1633.6</ele>
        <time>2022-08-21T08:35:32Z</time>
      </trkpt>
      <trkpt lat="42.760262" lon="1.009009">
        <ele>1634.1</ele>
        <time>2022-08-21T08:35:43Z</time>
      </trkpt>
      <trkpt lat="42.760265" lon="1.009146">
        <ele>1633.6</ele>
        <time>2022-08-21T08:35:51Z</time>
      </trkpt>
      <trkpt lat="42.760204" lon="1.009250">
        <ele>1633.3</ele>
        <time>2022-08-21T08:37:26Z</time>
      </trkpt>
      <trkpt lat="42.760184" lon="1.009376">
        <ele>1632.9</ele>
        <time>2022-08-21T08:37:33Z</time>
      </trkpt>
      <trkpt lat="42.760174" lon="1.009509">
        <ele>1632.7</ele>
        <time>2022-08-21T08:37:41Z</time>
      </trkpt>
      <trkpt lat="42.760117" lon="1.009627">
        <ele>1632.4</ele>
        <time>2022-08-21T08:37:50Z</time>
      </trkpt>
      <trkpt lat="42.760081" lon="1.009763">
        <ele>1631.9</ele>
        <time>2022-08-21T08:38:00Z</time>
      </trkpt>
      <trkpt lat="42.760084" lon="1.009888">
        <ele>1631.6</ele>
        <time>2022-08-21T08:38:07Z</time>
      </trkpt>
      <trkpt lat="42.760099" lon="1.010010">
        <ele>1631.6</ele>
        <time>2022-08-21T08:38:15Z</time>
      </trkpt>
      <trkpt lat="42.760096" lon="1.010133">
        <ele>1631.9</ele>
        <time>2022-08-21T08:38:28Z</time>
      </trkpt>
      <trkpt lat="42.760129" lon="1.010255">
        <ele>1632.0</ele>
        <time>2022-08-21T08:39:55Z</time>
      </trkpt>
      <trkpt lat="42.760136" lon="1.010383">
        <ele>1632.4</ele>
        <time>2022-08-21T08:40:45Z</time>
      </trkpt>
      <trkpt lat="42.760120" lon="1.010518">
        <ele>1632.0</ele>
        <time>2022-08-21T08:40:54Z</time>
      </trkpt>
      <trkpt lat="42.760108" lon="1.010641">
        <ele>1631.8</ele>
        <time>2022-08-21T08:41:01Z</time>
      </trkpt>
      <trkpt lat="42.760072" lon="1.010755">
        <ele>1631.3</ele>
        <time>2022-08-21T08:41:10Z</time>
      </trkpt>
      <trkpt lat="42.760057" lon="1.010880">
        <ele>1631.0</ele>
        <time>2022-08-21T08:41:17Z</time>
      </trkpt>
      <trkpt lat="42.760014" lon="1.011010">
        <ele>1630.4</ele>
        <time>2022-08-21T08:41:27Z</time>
      </trkpt>
      <trkpt lat="42.759978" lon="1.011135">
        <ele>1630.0</ele>
        <time>2022-08-21T08:41:35Z</time>
      </trkpt>
      <trkpt lat="42.759941" lon="1.011268">
        <ele>1629.6</ele>
        <time>2022-08-21T08:41:44Z</time>
      </trkpt>
      <trkpt lat="42.759917" lon="1.011393">
        <ele>1628.9</ele>
        <time>2022-08-21T08:41:50Z</time>
      </trkpt>
      <trkpt lat="42.759920" lon="1.011517">
        <ele>1628.9</ele>
        <time>2022-08-21T08:42:06Z</time>
      </trkpt>
      <trkpt lat="42.759961" lon="1.011627">
        <ele>1629.4</ele>
        <time>2022-08-21T08:42:35Z</time>
      </trkpt>
      <trkpt lat="42.760037" lon="1.011704">
        <ele>1629.1</ele>
        <time>2022-08-21T08:42:41Z</time>
      </trkpt>
      <trkpt lat="42.760082" lon="1.011817">
        <ele>1629.4</ele>
        <time>2022-08-21T08:42:51Z</time>
      </trkpt>
      <trkpt lat="42.760116" lon="1.011934">
        <ele>1629.7</ele>
        <time>2022-08-21T08:42:57Z</time>
      </trkpt>
      <trkpt lat="42.760184" lon="1.012023">
        <ele>1629.4</ele>
        <time>2022-08-21T08:43:04Z</time>
      </trkpt>
      <trkpt lat="42.760181" lon="1.012151">
        <ele>1629.0</ele>
        <time>2022-08-21T08:43:14Z</time>
      </trkpt>
      <trkpt lat="42.760161" lon="1.012271">
        <ele>1629.2</ele>
        <time>2022-08-21T08:43:23Z</time>
      </trkpt>
      <trkpt lat="42.760167" lon="1.012400">
        <ele>1629.4</ele>
        <time>2022-08-21T08:43:31Z</time>
      </trkpt>
      <trkpt lat="42.760176" lon="1.012532">
        <ele>1629.3</ele>
        <time>2022-08-21T08:43:38Z</time>
      </trkpt>
      <trkpt lat="42.760159" lon="1.012681">
        <ele>1628.8</ele>
        <time>2022-08-21T08:43:48Z</time>
      </trkpt>
      <trkpt lat="42.760144" lon="1.012812">
        <ele>1628.6</ele>
        <time>2022-08-21T08:43:57Z</time>
      </trkpt>
      <trkpt lat="42.760135" lon="1.012945">
        <ele>1628.7</ele>
        <time>2022-08-21T08:44:06Z</time>
      </trkpt>
      <trkpt lat="42.760123" lon="1.013067">
        <ele>1628.7</ele>
        <time>2022-08-21T08:44:15Z</time>
      </trkpt>
      <trkpt lat="42.760098" lon="1.013191">
        <ele>1628.6</ele>
        <time>2022-08-21T08:44:23Z</time>
      </trkpt>
      <trkpt lat="42.760048" lon="1.013305">
        <ele>1628.3</ele>
        <time>2022-08-21T08:44:34Z</time>
      </trkpt>
      <trkpt lat="42.759989" lon="1.013409">
        <ele>1628.9</ele>
        <time>2022-08-21T08:44:52Z</time>
      </trkpt>
      <trkpt lat="42.760006" lon="1.013534">
        <ele>1628.8</ele>
        <time>2022-08-21T08:45:00Z</time>
      </trkpt>
      <trkpt lat="42.760041" lon="1.013652">
        <ele>1628.6</ele>
        <time>2022-08-21T08:45:05Z</time>
      </trkpt>
      <trkpt lat="42.760052" lon="1.013793">
        <ele>1628.5</ele>
        <time>2022-08-21T08:45:15Z</time>
      </trkpt>
      <trkpt lat="42.760051" lon="1.013928">
        <ele>1628.4</ele>
        <time>2022-08-21T08:45:22Z</time>
      </trkpt>
      <trkpt lat="42.760069" lon="1.014055">
        <ele>1628.4</ele>
        <time>2022-08-21T08:45:30Z</time>
      </trkpt>
      <trkpt lat="42.760081" lon="1.014185">
        <ele>1628.5</ele>
        <time>2022-08-21T08:45:40Z</time>
      </trkpt>
      <trkpt lat="42.760085" lon="1.014309">
        <ele>1627.9</ele>
        <time>2022-08-21T08:45:53Z</time>
      </trkpt>
      <trkpt lat="42.760102" lon="1.014438">
        <ele>1627.6</ele>
        <time>2022-08-21T08:46:14Z</time>
      </trkpt>
      <trkpt lat="42.760096" lon="1.014573">
        <ele>1627.1</ele>
        <time>2022-08-21T08:46:22Z</time>
      </trkpt>
      <trkpt lat="42.760097" lon="1.014716">
        <ele>1626.4</ele>
        <time>2022-08-21T08:46:38Z</time>
      </trkpt>
      <trkpt lat="42.760102" lon="1.014844">
        <ele>1626.0</ele>
        <time>2022-08-21T08:46:45Z</time>
      </trkpt>
      <trkpt lat="42.760100" lon="1.014980">
        <ele>1625.7</ele>
        <time>2022-08-21T08:46:52Z</time>
      </trkpt>
      <trkpt lat="42.760113" lon="1.015125">
        <ele>1625.4</ele>
        <time>2022-08-21T08:47:02Z</time>
      </trkpt>
      <trkpt lat="42.760116" lon="1.015270">
        <ele>1625.4</ele>
        <time>2022-08-21T08:47:09Z</time>
      </trkpt>
      <trkpt lat="42.760129" lon="1.015398">
        <ele>1625.1</ele>
        <time>2022-08-21T08:47:17Z</time>
      </trkpt>
      <trkpt lat="42.760150" lon="1.015525">
        <ele>1625.0</ele>
        <time>2022-08-21T08:47:26Z</time>
      </trkpt>
      <trkpt lat="42.760156" lon="1.015652">
        <ele>1624.8</ele>
        <time>2022-08-21T08:47:33Z</time>
      </trkpt>
      <trkpt lat="42.760172" lon="1.015777">
        <ele>1624.5</ele>
        <time>2022-08-21T08:47:41Z</time>
      </trkpt>
      <trkpt lat="42.760183" lon="1.015915">
        <ele>1624.3</ele>
        <time>2022-08-21T08:47:50Z</time>
      </trkpt>
      <trkpt lat="42.760202" lon="1.016038">
        <ele>1624.1</ele>
        <time>2022-08-21T08:47:58Z</time>
      </trkpt>
      <trkpt lat="42.760182" lon="1.016167">
        <ele>1623.9</ele>
        <time>2022-08-21T08:48:07Z</time>
      </trkpt>
      <trkpt lat="42.760164" lon="1.016316">
        <ele>1623.6</ele>
        <time>2022-08-21T08:48:14Z</time>
      </trkpt>
      <trkpt lat="42.760152" lon="1.016448">
        <ele>1623.3</ele>
        <time>2022-08-21T08:48:21Z</time>
      </trkpt>
      <trkpt lat="42.760140" lon="1.016573">
        <ele>1623.0</ele>
        <time>2022-08-21T08:48:28Z</time>
      </trkpt>
      <trkpt lat="42.760110" lon="1.016691">
        <ele>1622.6</ele>
        <time>2022-08-21T08:48:36Z</time>
      </trkpt>
      <trkpt lat="42.760079" lon="1.016806">
        <ele>1622.3</ele>
        <time>2022-08-21T08:48:45Z</time>
      </trkpt>
      <trkpt lat="42.760038" lon="1.016930">
        <ele>1621.8</ele>
        <time>2022-08-21T08:48:52Z</time>
      </trkpt>
      <trkpt lat="42.760009" lon="1.017048">
        <ele>1621.2</ele>
        <time>2022-08-21T08:49:02Z</time>
      </trkpt>
      <trkpt lat="42.759969" lon="1.017175">
        <ele>1621.0</ele>
        <time>2022-08-21T08:49:10Z</time>
      </trkpt>
      <trkpt lat="42.759932" lon="1.017298">
        <ele>1620.6</ele>
        <time>2022-08-21T08:49:17Z</time>
      </trkpt>
      <trkpt lat="42.759893" lon="1.017408">
        <ele>1620.6</ele>
        <time>2022-08-21T08:49:26Z</time>
      </trkpt>
      <trkpt lat="42.759854" lon="1.017533">
        <ele>1620.0</ele>
        <time>2022-08-21T08:49:34Z</time>
      </trkpt>
      <trkpt lat="42.759841" lon="1.017657">
        <ele>1619.2</ele>
        <time>2022-08-21T08:49:42Z</time>
      </trkpt>
      <trkpt lat="42.759852" lon="1.017797">
        <ele>1618.5</ele>
        <time>2022-08-21T08:49:52Z</time>
      </trkpt>
      <trkpt lat="42.759853" lon="1.017930">
        <ele>1618.3</ele>
        <time>2022-08-21T08:50:01Z</time>
      </trkpt>
      <trkpt lat="42.759888" lon="1.018068">
        <ele>1618.4</ele>
        <time>2022-08-21T08:50:09Z</time>
      </trkpt>
      <trkpt lat="42.759899" lon="1.018193">
        <ele>1618.6</ele>
        <time>2022-08-21T08:50:16Z</time>
      </trkpt>
      <trkpt lat="42.759880" lon="1.018322">
        <ele>1618.3</ele>
        <time>2022-08-21T08:50:24Z</time>
      </trkpt>
      <trkpt lat="42.759869" lon="1.018465">
        <ele>1618.0</ele>
        <time>2022-08-21T08:50:32Z</time>
      </trkpt>
      <trkpt lat="42.759857" lon="1.018589">
        <ele>1617.7</ele>
        <time>2022-08-21T08:50:41Z</time>
      </trkpt>
      <trkpt lat="42.759817" lon="1.018716">
        <ele>1617.6</ele>
        <time>2022-08-21T08:50:49Z</time>
      </trkpt>
      <trkpt lat="42.759782" lon="1.018837">
        <ele>1617.5</ele>
        <time>2022-08-21T08:50:58Z</time>
      </trkpt>
      <trkpt lat="42.759767" lon="1.018966">
        <ele>1617.5</ele>
        <time>2022-08-21T08:51:05Z</time>
      </trkpt>
      <trkpt lat="42.759725" lon="1.019089">
        <ele>1617.3</ele>
        <time>2022-08-21T08:51:12Z</time>
      </trkpt>
      <trkpt lat="42.759691" lon="1.019204">
        <ele>1617.7</ele>
        <time>2022-08-21T08:51:21Z</time>
      </trkpt>
      <trkpt lat="42.759660" lon="1.019320">
        <ele>1618.3</ele>
        <time>2022-08-21T08:51:29Z</time>
      </trkpt>
      <trkpt lat="42.759614" lon="1.019437">
        <ele>1618.2</ele>
        <time>2022-08-21T08:51:37Z</time>
      </trkpt>
      <trkpt lat="42.759581" lon="1.019558">
        <ele>1618.3</ele>
        <time>2022-08-21T08:51:45Z</time>
      </trkpt>
      <trkpt lat="42.759549" lon="1.019693">
        <ele>1618.4</ele>
        <time>2022-08-21T08:51:55Z</time>
      </trkpt>
      <trkpt lat="42.759532" lon="1.019822">
        <ele>1618.4</ele>
        <time>2022-08-21T08:52:02Z</time>
      </trkpt>
      <trkpt lat="42.759506" lon="1.019944">
        <ele>1617.9</ele>
        <time>2022-08-21T08:52:11Z</time>
      </trkpt>
      <trkpt lat="42.759478" lon="1.020066">
        <ele>1617.8</ele>
        <time>2022-08-21T08:52:18Z</time>
      </trkpt>
      <trkpt lat="42.759455" lon="1.020188">
        <ele>1617.4</ele>
        <time>2022-08-21T08:52:28Z</time>
      </trkpt>
      <trkpt lat="42.759390" lon="1.020303">
        <ele>1616.7</ele>
        <time>2022-08-21T08:53:08Z</time>
      </trkpt>
      <trkpt lat="42.759334" lon="1.020405">
        <ele>1616.9</ele>
        <time>2022-08-21T08:53:17Z</time>
      </trkpt>
      <trkpt lat="42.759284" lon="1.020510">
        <ele>1617.1</ele>
        <time>2022-08-21T08:53:25Z</time>
      </trkpt>
      <trkpt lat="42.759211" lon="1.020631">
        <ele>1616.9</ele>
        <time>2022-08-21T08:53:33Z</time>
      </trkpt>
      <trkpt lat="42.759158" lon="1.020748">
        <ele>1616.9</ele>
        <time>2022-08-21T08:53:40Z</time>
      </trkpt>
      <trkpt lat="42.759121" lon="1.020871">
        <ele>1617.6</ele>
        <time>2022-08-21T08:53:49Z</time>
      </trkpt>
      <trkpt lat="42.759063" lon="1.020970">
        <ele>1617.9</ele>
        <time>2022-08-21T08:53:58Z</time>
      </trkpt>
      <trkpt lat="42.759000" lon="1.021077">
        <ele>1618.5</ele>
        <time>2022-08-21T08:54:07Z</time>
      </trkpt>
      <trkpt lat="42.758948" lon="1.021193">
        <ele>1619.4</ele>
        <time>2022-08-21T08:54:16Z</time>
      </trkpt>
      <trkpt lat="42.758911" lon="1.021308">
        <ele>1620.2</ele>
        <time>2022-08-21T08:54:25Z</time>
      </trkpt>
      <trkpt lat="42.758868" lon="1.021426">
        <ele>1621.0</ele>
        <time>2022-08-21T08:54:35Z</time>
      </trkpt>
      <trkpt lat="42.758815" lon="1.021530">
        <ele>1621.1</ele>
        <time>2022-08-21T08:54:42Z</time>
      </trkpt>
      <trkpt lat="42.758759" lon="1.021641">
        <ele>1621.1</ele>
        <time>2022-08-21T08:54:51Z</time>
      </trkpt>
      <trkpt lat="42.758702" lon="1.021738">
        <ele>1621.5</ele>
        <time>2022-08-21T08:54:58Z</time>
      </trkpt>
      <trkpt lat="42.758656" lon="1.021849">
        <ele>1622.1</ele>
        <time>2022-08-21T08:55:06Z</time>
      </trkpt>
      <trkpt lat="42.758601" lon="1.021958">
        <ele>1622.3</ele>
        <time>2022-08-21T08:55:15Z</time>
      </trkpt>
      <trkpt lat="42.758563" lon="1.022075">
        <ele>1622.1</ele>
        <time>2022-08-21T08:55:22Z</time>
      </trkpt>
      <trkpt lat="42.758509" lon="1.022210">
        <ele>1621.5</ele>
        <time>2022-08-21T08:55:32Z</time>
      </trkpt>
      <trkpt lat="42.758459" lon="1.022341">
        <ele>1621.6</ele>
        <time>2022-08-21T08:55:42Z</time>
      </trkpt>
      <trkpt lat="42.758429" lon="1.022467">
        <ele>1621.8</ele>
        <time>2022-08-21T08:56:01Z</time>
      </trkpt>
      <trkpt lat="42.758392" lon="1.022583">
        <ele>1622.5</ele>
        <time>2022-08-21T08:56:11Z</time>
      </trkpt>
      <trkpt lat="42.758343" lon="1.022695">
        <ele>1622.9</ele>
        <time>2022-08-21T08:56:19Z</time>
      </trkpt>
      <trkpt lat="42.758294" lon="1.022817">
        <ele>1622.7</ele>
        <time>2022-08-21T08:56:29Z</time>
      </trkpt>
      <trkpt lat="42.758251" lon="1.022929">
        <ele>1622.3</ele>
        <time>2022-08-21T08:56:36Z</time>
      </trkpt>
      <trkpt lat="42.758187" lon="1.023045">
        <ele>1623.0</ele>
        <time>2022-08-21T08:56:46Z</time>
      </trkpt>
      <trkpt lat="42.758154" lon="1.023161">
        <ele>1622.9</ele>
        <time>2022-08-21T08:56:54Z</time>
      </trkpt>
      <trkpt lat="42.758093" lon="1.023291">
        <ele>1622.7</ele>
        <time>2022-08-21T08:57:03Z</time>
      </trkpt>
      <trkpt lat="42.758063" lon="1.023421">
        <ele>1622.5</ele>
        <time>2022-08-21T08:57:09Z</time>
      </trkpt>
      <trkpt lat="42.757996" lon="1.023522">
        <ele>1622.6</ele>
        <time>2022-08-21T08:57:16Z</time>
      </trkpt>
      <trkpt lat="42.757990" lon="1.023652">
        <ele>1622.2</ele>
        <time>2022-08-21T08:57:23Z</time>
      </trkpt>
      <trkpt lat="42.757905" lon="1.023750">
        <ele>1621.6</ele>
        <time>2022-08-21T08:57:34Z</time>
      </trkpt>
      <trkpt lat="42.757879" lon="1.023877">
        <ele>1621.3</ele>
        <time>2022-08-21T08:57:42Z</time>
      </trkpt>
      <trkpt lat="42.757874" lon="1.024002">
        <ele>1621.8</ele>
        <time>2022-08-21T08:57:50Z</time>
      </trkpt>
      <trkpt lat="42.757877" lon="1.024136">
        <ele>1623.3</ele>
        <time>2022-08-21T08:58:01Z</time>
      </trkpt>
      <trkpt lat="42.757846" lon="1.024258">
        <ele>1624.0</ele>
        <time>2022-08-21T08:58:07Z</time>
      </trkpt>
      <trkpt lat="42.757786" lon="1.024366">
        <ele>1624.6</ele>
        <time>2022-08-21T08:58:16Z</time>
      </trkpt>
      <trkpt lat="42.757718" lon="1.024468">
        <ele>1624.8</ele>
        <time>2022-08-21T08:58:23Z</time>
      </trkpt>
      <trkpt lat="42.757658" lon="1.024570">
        <ele>1625.3</ele>
        <time>2022-08-21T08:58:32Z</time>
      </trkpt>
      <trkpt lat="42.757618" lon="1.024698">
        <ele>1625.5</ele>
        <time>2022-08-21T08:58:41Z</time>
      </trkpt>
      <trkpt lat="42.757581" lon="1.024822">
        <ele>1625.6</ele>
        <time>2022-08-21T08:58:49Z</time>
      </trkpt>
      <trkpt lat="42.757550" lon="1.024954">
        <ele>1625.4</ele>
        <time>2022-08-21T08:58:57Z</time>
      </trkpt>
      <trkpt lat="42.757495" lon="1.025055">
        <ele>1625.1</ele>
        <time>2022-08-21T08:59:04Z</time>
      </trkpt>
      <trkpt lat="42.757440" lon="1.025186">
        <ele>1624.2</ele>
        <time>2022-08-21T08:59:15Z</time>
      </trkpt>
      <trkpt lat="42.757441" lon="1.025311">
        <ele>1623.6</ele>
        <time>2022-08-21T08:59:21Z</time>
      </trkpt>
      <trkpt lat="42.757402" lon="1.025445">
        <ele>1623.2</ele>
        <time>2022-08-21T08:59:29Z</time>
      </trkpt>
      <trkpt lat="42.757367" lon="1.025563">
        <ele>1622.9</ele>
        <time>2022-08-21T08:59:37Z</time>
      </trkpt>
      <trkpt lat="42.757360" lon="1.025700">
        <ele>1623.0</ele>
        <time>2022-08-21T08:59:45Z</time>
      </trkpt>
      <trkpt lat="42.757324" lon="1.025831">
        <ele>1621.9</ele>
        <time>2022-08-21T08:59:53Z</time>
      </trkpt>
      <trkpt lat="42.757295" lon="1.025966">
        <ele>1620.1</ele>
        <time>2022-08-21T09:00:03Z</time>
      </trkpt>
      <trkpt lat="42.757258" lon="1.026083">
        <ele>1619.1</ele>
        <time>2022-08-21T09:00:10Z</time>
      </trkpt>
      <trkpt lat="42.757251" lon="1.026221">
        <ele>1617.7</ele>
        <time>2022-08-21T09:00:18Z</time>
      </trkpt>
      <trkpt lat="42.757229" lon="1.026342">
        <ele>1617.6</ele>
        <time>2022-08-21T09:00:27Z</time>
      </trkpt>
      <trkpt lat="42.757212" lon="1.026466">
        <ele>1617.2</ele>
        <time>2022-08-21T09:00:33Z</time>
      </trkpt>
      <trkpt lat="42.757222" lon="1.026600">
        <ele>1616.1</ele>
        <time>2022-08-21T09:01:11Z</time>
      </trkpt>
      <trkpt lat="42.757181" lon="1.026718">
        <ele>1615.1</ele>
        <time>2022-08-21T09:01:21Z</time>
      </trkpt>
      <trkpt lat="42.757188" lon="1.026846">
        <ele>1615.1</ele>
        <time>2022-08-21T09:01:29Z</time>
      </trkpt>
      <trkpt lat="42.757194" lon="1.026993">
        <ele>1614.9</ele>
        <time>2022-08-21T09:01:38Z</time>
      </trkpt>
      <trkpt lat="42.757178" lon="1.027118">
        <ele>1615.1</ele>
        <time>2022-08-21T09:01:47Z</time>
      </trkpt>
      <trkpt lat="42.757197" lon="1.027240">
        <ele>1615.3</ele>
        <time>2022-08-21T09:01:54Z</time>
      </trkpt>
      <trkpt lat="42.757159" lon="1.027355">
        <ele>1615.1</ele>
        <time>2022-08-21T09:02:03Z</time>
      </trkpt>
      <trkpt lat="42.757153" lon="1.027493">
        <ele>1614.6</ele>
        <time>2022-08-21T09:02:10Z</time>
      </trkpt>
      <trkpt lat="42.757135" lon="1.027620">
        <ele>1614.0</ele>
        <time>2022-08-21T09:02:18Z</time>
      </trkpt>
      <trkpt lat="42.757127" lon="1.027748">
        <ele>1613.6</ele>
        <time>2022-08-21T09:02:25Z</time>
      </trkpt>
      <trkpt lat="42.757104" lon="1.027868">
        <ele>1613.3</ele>
        <time>2022-08-21T09:02:34Z</time>
      </trkpt>
      <trkpt lat="42.757114" lon="1.028010">
        <ele>1612.9</ele>
        <time>2022-08-21T09:02:41Z</time>
      </trkpt>
      <trkpt lat="42.757097" lon="1.028147">
        <ele>1612.6</ele>
        <time>2022-08-21T09:02:48Z</time>
      </trkpt>
      <trkpt lat="42.757065" lon="1.028276">
        <ele>1612.0</ele>
        <time>2022-08-21T09:02:55Z</time>
      </trkpt>
      <trkpt lat="42.757054" lon="1.028403">
        <ele>1611.8</ele>
        <time>2022-08-21T09:03:02Z</time>
      </trkpt>
      <trkpt lat="42.757039" lon="1.028540">
        <ele>1612.0</ele>
        <time>2022-08-21T09:03:12Z</time>
      </trkpt>
      <trkpt lat="42.757040" lon="1.028665">
        <ele>1611.7</ele>
        <time>2022-08-21T09:03:19Z</time>
      </trkpt>
      <trkpt lat="42.757022" lon="1.028785">
        <ele>1611.5</ele>
        <time>2022-08-21T09:03:26Z</time>
      </trkpt>
      <trkpt lat="42.757032" lon="1.028925">
        <ele>1611.2</ele>
        <time>2022-08-21T09:03:37Z</time>
      </trkpt>
      <trkpt lat="42.757014" lon="1.029053">
        <ele>1610.8</ele>
        <time>2022-08-21T09:03:44Z</time>
      </trkpt>
      <trkpt lat="42.757020" lon="1.029178">
        <ele>1610.3</ele>
        <time>2022-08-21T09:03:51Z</time>
      </trkpt>
      <trkpt lat="42.756992" lon="1.029303">
        <ele>1610.1</ele>
        <time>2022-08-21T09:04:00Z</time>
      </trkpt>
      <trkpt lat="42.756988" lon="1.029434">
        <ele>1609.9</ele>
        <time>2022-08-21T09:04:07Z</time>
      </trkpt>
      <trkpt lat="42.756983" lon="1.029567">
        <ele>1609.6</ele>
        <time>2022-08-21T09:04:14Z</time>
      </trkpt>
      <trkpt lat="42.756979" lon="1.029697">
        <ele>1610.1</ele>
        <time>2022-08-21T09:04:22Z</time>
      </trkpt>
      <trkpt lat="42.756970" lon="1.029830">
        <ele>1609.1</ele>
        <time>2022-08-21T09:04:32Z</time>
      </trkpt>
      <trkpt lat="42.756956" lon="1.029961">
        <ele>1609.1</ele>
        <time>2022-08-21T09:04:39Z</time>
      </trkpt>
      <trkpt lat="42.756919" lon="1.030084">
        <ele>1608.9</ele>
        <time>2022-08-21T09:04:49Z</time>
      </trkpt>
      <trkpt lat="42.756866" lon="1.030200">
        <ele>1608.8</ele>
        <time>2022-08-21T09:04:57Z</time>
      </trkpt>
      <trkpt lat="42.756842" lon="1.030319">
        <ele>1609.1</ele>
        <time>2022-08-21T09:05:05Z</time>
      </trkpt>
      <trkpt lat="42.756874" lon="1.030465">
        <ele>1610.6</ele>
        <time>2022-08-21T09:05:23Z</time>
      </trkpt>
      <trkpt lat="42.756940" lon="1.030559">
        <ele>1611.3</ele>
        <time>2022-08-21T09:05:32Z</time>
      </trkpt>
      <trkpt lat="42.757017" lon="1.030652">
        <ele>1611.7</ele>
        <time>2022-08-21T09:05:41Z</time>
      </trkpt>
      <trkpt lat="42.757065" lon="1.030763">
        <ele>1612.6</ele>
        <time>2022-08-21T09:05:51Z</time>
      </trkpt>
      <trkpt lat="42.757054" lon="1.030894">
        <ele>1614.7</ele>
        <time>2022-08-21T09:06:04Z</time>
      </trkpt>
      <trkpt lat="42.757070" lon="1.031025">
        <ele>1614.7</ele>
        <time>2022-08-21T09:06:13Z</time>
      </trkpt>
      <trkpt lat="42.757029" lon="1.031145">
        <ele>1615.0</ele>
        <time>2022-08-21T09:06:23Z</time>
      </trkpt>
      <trkpt lat="42.757085" lon="1.031241">
        <ele>1615.4</ele>
        <time>2022-08-21T09:06:31Z</time>
      </trkpt>
      <trkpt lat="42.757149" lon="1.031350">
        <ele>1615.6</ele>
        <time>2022-08-21T09:06:40Z</time>
      </trkpt>
      <trkpt lat="42.757228" lon="1.031418">
        <ele>1616.2</ele>
        <time>2022-08-21T09:06:46Z</time>
      </trkpt>
      <trkpt lat="42.757264" lon="1.031536">
        <ele>1616.5</ele>
        <time>2022-08-21T09:06:53Z</time>
      </trkpt>
      <trkpt lat="42.757302" lon="1.031654">
        <ele>1617.1</ele>
        <time>2022-08-21T09:07:02Z</time>
      </trkpt>
      <trkpt lat="42.757358" lon="1.031764">
        <ele>1617.7</ele>
        <time>2022-08-21T09:07:11Z</time>
      </trkpt>
      <trkpt lat="42.757387" lon="1.031894">
        <ele>1617.7</ele>
        <time>2022-08-21T09:07:19Z</time>
      </trkpt>
      <trkpt lat="42.757399" lon="1.032023">
        <ele>1618.4</ele>
        <time>2022-08-21T09:07:27Z</time>
      </trkpt>
      <trkpt lat="42.757419" lon="1.032152">
        <ele>1619.2</ele>
        <time>2022-08-21T09:07:35Z</time>
      </trkpt>
      <trkpt lat="42.757411" lon="1.032275">
        <ele>1619.7</ele>
        <time>2022-08-21T09:07:44Z</time>
      </trkpt>
      <trkpt lat="42.757402" lon="1.032407">
        <ele>1620.0</ele>
        <time>2022-08-21T09:07:51Z</time>
      </trkpt>
      <trkpt lat="42.757425" lon="1.032529">
        <ele>1619.9</ele>
        <time>2022-08-21T09:08:00Z</time>
      </trkpt>
      <trkpt lat="42.757468" lon="1.032637">
        <ele>1620.0</ele>
        <time>2022-08-21T09:08:08Z</time>
      </trkpt>
      <trkpt lat="42.757527" lon="1.032748">
        <ele>1620.8</ele>
        <time>2022-08-21T09:08:18Z</time>
      </trkpt>
      <trkpt lat="42.757609" lon="1.032809">
        <ele>1622.0</ele>
        <time>2022-08-21T09:08:27Z</time>
      </trkpt>
      <trkpt lat="42.757702" lon="1.032800">
        <ele>1623.0</ele>
        <time>2022-08-21T09:08:38Z</time>
      </trkpt>
      <trkpt lat="42.757790" lon="1.032757">
        <ele>1624.2</ele>
        <time>2022-08-21T09:08:49Z</time>
      </trkpt>
      <trkpt lat="42.757880" lon="1.032725">
        <ele>1625.4</ele>
        <time>2022-08-21T09:09:00Z</time>
      </trkpt>
      <trkpt lat="42.757962" lon="1.032660">
        <ele>1626.2</ele>
        <time>2022-08-21T09:09:13Z</time>
      </trkpt>
      <trkpt lat="42.758057" lon="1.032645">
        <ele>1627.5</ele>
        <time>2022-08-21T09:09:24Z</time>
      </trkpt>
      <trkpt lat="42.758147" lon="1.032658">
        <ele>1629.2</ele>
        <time>2022-08-21T09:09:50Z</time>
      </trkpt>
      <trkpt lat="42.758207" lon="1.032752">
        <ele>1630.0</ele>
        <time>2022-08-21T09:11:03Z</time>
      </trkpt>
      <trkpt lat="42.758194" lon="1.032890">
        <ele>1630.6</ele>
        <time>2022-08-21T09:11:18Z</time>
      </trkpt>
      <trkpt lat="42.758182" lon="1.033034">
        <ele>1631.0</ele>
        <time>2022-08-21T09:11:27Z</time>
      </trkpt>
      <trkpt lat="42.758215" lon="1.033157">
        <ele>1630.9</ele>
        <time>2022-08-21T09:12:05Z</time>
      </trkpt>
      <trkpt lat="42.758215" lon="1.033288">
        <ele>1630.6</ele>
        <time>2022-08-21T09:12:15Z</time>
      </trkpt>
      <trkpt lat="42.758218" lon="1.033432">
        <ele>1630.1</ele>
        <time>2022-08-21T09:12:23Z</time>
      </trkpt>
      <trkpt lat="42.758210" lon="1.033558">
        <ele>1630.4</ele>
        <time>2022-08-21T09:12:32Z</time>
      </trkpt>
      <trkpt lat="42.758215" lon="1.033702">
        <ele>1630.4</ele>
        <time>2022-08-21T09:12:41Z</time>
      </trkpt>
      <trkpt lat="42.758247" lon="1.033830">
        <ele>1630.2</ele>
        <time>2022-08-21T09:12:52Z</time>
      </trkpt>
      <trkpt lat="42.758328" lon="1.033911">
        <ele>1629.8</ele>
        <time>2022-08-21T09:12:58Z</time>
      </trkpt>
      <trkpt lat="42.758349" lon="1.034032">
        <ele>1630.1</ele>
        <time>2022-08-21T09:13:09Z</time>
      </trkpt>
      <trkpt lat="42.758379" lon="1.034161">
        <ele>1630.5</ele>
        <time>2022-08-21T09:13:20Z</time>
      </trkpt>
      <trkpt lat="42.758409" lon="1.034303">
        <ele>1629.9</ele>
        <time>2022-08-21T09:13:29Z</time>
      </trkpt>
      <trkpt lat="42.758448" lon="1.034416">
        <ele>1628.8</ele>
        <time>2022-08-21T09:13:38Z</time>
      </trkpt>
      <trkpt lat="42.758496" lon="1.034530">
        <ele>1628.4</ele>
        <time>2022-08-21T09:13:44Z</time>
      </trkpt>
      <trkpt lat="42.758517" lon="1.034668">
        <ele>1627.7</ele>
        <time>2022-08-21T09:13:51Z</time>
      </trkpt>
      <trkpt lat="42.758561" lon="1.034792">
        <ele>1627.4</ele>
        <time>2022-08-21T09:14:06Z</time>
      </trkpt>
      <trkpt lat="42.758607" lon="1.034900">
        <ele>1627.4</ele>
        <time>2022-08-21T09:14:12Z</time>
      </trkpt>
      <trkpt lat="42.758647" lon="1.035024">
        <ele>1627.8</ele>
        <time>2022-08-21T09:14:24Z</time>
      </trkpt>
      <trkpt lat="42.758672" lon="1.035146">
        <ele>1628.7</ele>
        <time>2022-08-21T09:14:35Z</time>
      </trkpt>
      <trkpt lat="42.758689" lon="1.035272">
        <ele>1629.8</ele>
        <time>2022-08-21T09:14:45Z</time>
      </trkpt>
      <trkpt lat="42.758751" lon="1.035372">
        <ele>1631.4</ele>
        <time>2022-08-21T09:14:54Z</time>
      </trkpt>
      <trkpt lat="42.758783" lon="1.035509">
        <ele>1632.5</ele>
        <time>2022-08-21T09:15:04Z</time>
      </trkpt>
      <trkpt lat="42.758790" lon="1.035633">
        <ele>1632.7</ele>
        <time>2022-08-21T09:15:41Z</time>
      </trkpt>
      <trkpt lat="42.758806" lon="1.035762">
        <ele>1632.6</ele>
        <time>2022-08-21T09:15:52Z</time>
      </trkpt>
      <trkpt lat="42.758882" lon="1.035864">
        <ele>1632.1</ele>
        <time>2022-08-21T09:16:00Z</time>
      </trkpt>
      <trkpt lat="42.758893" lon="1.036001">
        <ele>1631.7</ele>
        <time>2022-08-21T09:16:07Z</time>
      </trkpt>
      <trkpt lat="42.758939" lon="1.036111">
        <ele>1631.3</ele>
        <time>2022-08-21T09:16:16Z</time>
      </trkpt>
      <trkpt lat="42.758978" lon="1.036223">
        <ele>1631.1</ele>
        <time>2022-08-21T09:16:25Z</time>
      </trkpt>
      <trkpt lat="42.759012" lon="1.036340">
        <ele>1631.1</ele>
        <time>2022-08-21T09:16:32Z</time>
      </trkpt>
      <trkpt lat="42.759025" lon="1.036484">
        <ele>1630.6</ele>
        <time>2022-08-21T09:16:41Z</time>
      </trkpt>
      <trkpt lat="42.758995" lon="1.036618">
        <ele>1630.3</ele>
        <time>2022-08-21T09:16:49Z</time>
      </trkpt>
      <trkpt lat="42.759015" lon="1.036744">
        <ele>1630.2</ele>
        <time>2022-08-21T09:17:17Z</time>
      </trkpt>
      <trkpt lat="42.759003" lon="1.036880">
        <ele>1630.3</ele>
        <time>2022-08-21T09:17:27Z</time>
      </trkpt>
      <trkpt lat="42.759013" lon="1.037004">
        <ele>1630.7</ele>
        <time>2022-08-21T09:17:38Z</time>
      </trkpt>
      <trkpt lat="42.759006" lon="1.037141">
        <ele>1630.6</ele>
        <time>2022-08-21T09:17:47Z</time>
      </trkpt>
      <trkpt lat="42.758957" lon="1.037247">
        <ele>1629.9</ele>
        <time>2022-08-21T09:18:04Z</time>
      </trkpt>
      <trkpt lat="42.758967" lon="1.037376">
        <ele>1629.5</ele>
        <time>2022-08-21T09:18:15Z</time>
      </trkpt>
      <trkpt lat="42.758952" lon="1.037514">
        <ele>1629.5</ele>
        <time>2022-08-21T09:18:24Z</time>
      </trkpt>
      <trkpt lat="42.758933" lon="1.037635">
        <ele>1629.3</ele>
        <time>2022-08-21T09:18:33Z</time>
      </trkpt>
      <trkpt lat="42.758863" lon="1.037750">
        <ele>1628.9</ele>
        <time>2022-08-21T09:18:43Z</time>
      </trkpt>
      <trkpt lat="42.758845" lon="1.037871">
        <ele>1627.9</ele>
        <time>2022-08-21T09:18:51Z</time>
      </trkpt>
      <trkpt lat="42.758856" lon="1.037994">
        <ele>1627.3</ele>
        <time>2022-08-21T09:18:57Z</time>
      </trkpt>
      <trkpt lat="42.758856" lon="1.038120">
        <ele>1626.7</ele>
        <time>2022-08-21T09:19:03Z</time>
      </trkpt>
      <trkpt lat="42.758871" lon="1.038243">
        <ele>1626.5</ele>
        <time>2022-08-21T09:19:11Z</time>
      </trkpt>
      <trkpt lat="42.758870" lon="1.038371">
        <ele>1625.0</ele>
        <time>2022-08-21T09:19:26Z</time>
      </trkpt>
      <trkpt lat="42.758895" lon="1.038496">
        <ele>1626.5</ele>
        <time>2022-08-21T09:19:34Z</time>
      </trkpt>
      <trkpt lat="42.758887" lon="1.038620">
        <ele>1626.6</ele>
        <time>2022-08-21T09:19:43Z</time>
      </trkpt>
      <trkpt lat="42.758906" lon="1.038760">
        <ele>1626.5</ele>
        <time>2022-08-21T09:19:54Z</time>
      </trkpt>
      <trkpt lat="42.758947" lon="1.038888">
        <ele>1626.3</ele>
        <time>2022-08-21T09:20:24Z</time>
      </trkpt>
      <trkpt lat="42.758939" lon="1.039023">
        <ele>1626.3</ele>
        <time>2022-08-21T09:20:34Z</time>
      </trkpt>
      <trkpt lat="42.758913" lon="1.039158">
        <ele>1626.3</ele>
        <time>2022-08-21T09:20:44Z</time>
      </trkpt>
      <trkpt lat="42.758938" lon="1.039289">
        <ele>1625.7</ele>
        <time>2022-08-21T09:20:54Z</time>
      </trkpt>
      <trkpt lat="42.758934" lon="1.039412">
        <ele>1625.1</ele>
        <time>2022-08-21T09:21:02Z</time>
      </trkpt>
      <trkpt lat="42.758890" lon="1.039541">
        <ele>1624.7</ele>
        <time>2022-08-21T09:21:12Z</time>
      </trkpt>
      <trkpt lat="42.758869" lon="1.039670">
        <ele>1624.5</ele>
        <time>2022-08-21T09:21:23Z</time>
      </trkpt>
      <trkpt lat="42.758855" lon="1.039795">
        <ele>1624.4</ele>
        <time>2022-08-21T09:21:30Z</time>
      </trkpt>
      <trkpt lat="42.758835" lon="1.039944">
        <ele>1624.2</ele>
        <time>2022-08-21T09:21:40Z</time>
      </trkpt>
      <trkpt lat="42.758811" lon="1.040078">
        <ele>1623.8</ele>
        <time>2022-08-21T09:21:50Z</time>
      </trkpt>
      <trkpt lat="42.758761" lon="1.040213">
        <ele>1623.4</ele>
        <time>2022-08-21T09:22:00Z</time>
      </trkpt>
      <trkpt lat="42.758709" lon="1.040323">
        <ele>1622.9</ele>
        <time>2022-08-21T09:22:10Z</time>
      </trkpt>
      <trkpt lat="42.758652" lon="1.040418">
        <ele>1622.6</ele>
        <time>2022-08-21T09:22:19Z</time>
      </trkpt>
      <trkpt lat="42.758599" lon="1.040529">
        <ele>1622.6</ele>
        <time>2022-08-21T09:22:27Z</time>
      </trkpt>
      <trkpt lat="42.758568" lon="1.040656">
        <ele>1622.5</ele>
        <time>2022-08-21T09:22:42Z</time>
      </trkpt>
      <trkpt lat="42.758485" lon="1.040713">
        <ele>1622.6</ele>
        <time>2022-08-21T09:23:10Z</time>
      </trkpt>
      <trkpt lat="42.758432" lon="1.040820">
        <ele>1622.5</ele>
        <time>2022-08-21T09:23:19Z</time>
      </trkpt>
      <trkpt lat="42.758426" lon="1.040954">
        <ele>1623.0</ele>
        <time>2022-08-21T09:23:31Z</time>
      </trkpt>
      <trkpt lat="42.758404" lon="1.041082">
        <ele>1623.9</ele>
        <time>2022-08-21T09:23:41Z</time>
      </trkpt>
      <trkpt lat="42.758412" lon="1.041209">
        <ele>1623.9</ele>
        <time>2022-08-21T09:23:50Z</time>
      </trkpt>
      <trkpt lat="42.758423" lon="1.041334">
        <ele>1624.3</ele>
        <time>2022-08-21T09:23:59Z</time>
      </trkpt>
      <trkpt lat="42.758417" lon="1.041460">
        <ele>1624.8</ele>
        <time>2022-08-21T09:24:08Z</time>
      </trkpt>
      <trkpt lat="42.758394" lon="1.041581">
        <ele>1625.1</ele>
        <time>2022-08-21T09:24:17Z</time>
      </trkpt>
      <trkpt lat="42.758379" lon="1.041708">
        <ele>1624.4</ele>
        <time>2022-08-21T09:24:26Z</time>
      </trkpt>
      <trkpt lat="42.758340" lon="1.041827">
        <ele>1623.9</ele>
        <time>2022-08-21T09:24:37Z</time>
      </trkpt>
      <trkpt lat="42.758440" lon="1.041828">
        <ele>1623.9</ele>
        <time>2022-08-21T09:27:15Z</time>
      </trkpt>
      <trkpt lat="42.758515" lon="1.041903">
        <ele>1624.8</ele>
        <time>2022-08-21T09:27:29Z</time>
      </trkpt>
      <trkpt lat="42.758541" lon="1.042024">
        <ele>1625.6</ele>
        <time>2022-08-21T09:27:38Z</time>
      </trkpt>
      <trkpt lat="42.758576" lon="1.042152">
        <ele>1625.5</ele>
        <time>2022-08-21T09:27:46Z</time>
      </trkpt>
      <trkpt lat="42.758611" lon="1.042270">
        <ele>1625.1</ele>
        <time>2022-08-21T09:28:01Z</time>
      </trkpt>
      <trkpt lat="42.758687" lon="1.042352">
        <ele>1625.0</ele>
        <time>2022-08-21T09:28:07Z</time>
      </trkpt>
      <trkpt lat="42.758750" lon="1.042461">
        <ele>1624.4</ele>
        <time>2022-08-21T09:28:15Z</time>
      </trkpt>
      <trkpt lat="42.758758" lon="1.042626">
        <ele>1624.6</ele>
        <time>2022-08-21T09:28:24Z</time>
      </trkpt>
      <trkpt lat="42.758799" lon="1.042741">
        <ele>1624.5</ele>
        <time>2022-08-21T09:28:32Z</time>
      </trkpt>
      <trkpt lat="42.758828" lon="1.042860">
        <ele>1623.6</ele>
        <time>2022-08-21T09:28:38Z</time>
      </trkpt>
      <trkpt lat="42.758831" lon="1.042987">
        <ele>1622.5</ele>
        <time>2022-08-21T09:28:47Z</time>
      </trkpt>
      <trkpt lat="42.758856" lon="1.043130">
        <ele>1621.5</ele>
        <time>2022-08-21T09:28:58Z</time>
      </trkpt>
      <trkpt lat="42.758866" lon="1.043256">
        <ele>1620.2</ele>
        <time>2022-08-21T09:29:07Z</time>
      </trkpt>
      <trkpt lat="42.758886" lon="1.043382">
        <ele>1619.8</ele>
        <time>2022-08-21T09:29:14Z</time>
      </trkpt>
      <trkpt lat="42.758928" lon="1.043513">
        <ele>1619.2</ele>
        <time>2022-08-21T09:29:20Z</time>
      </trkpt>
      <trkpt lat="42.758977" lon="1.043617">
        <ele>1618.4</ele>
        <time>2022-08-21T09:29:29Z</time>
      </trkpt>
      <trkpt lat="42.759048" lon="1.043718">
        <ele>1617.9</ele>
        <time>2022-08-21T09:29:37Z</time>
      </trkpt>
      <trkpt lat="42.759126" lon="1.043785">
        <ele>1615.9</ele>
        <time>2022-08-21T09:29:50Z</time>
      </trkpt>
      <trkpt lat="42.759220" lon="1.043784">
        <ele>1615.0</ele>
        <time>2022-08-21T09:30:01Z</time>
      </trkpt>
      <trkpt lat="42.759303" lon="1.043838">
        <ele>1614.1</ele>
        <time>2022-08-21T09:30:29Z</time>
      </trkpt>
      <trkpt lat="42.759364" lon="1.043936">
        <ele>1612.6</ele>
        <time>2022-08-21T09:30:43Z</time>
      </trkpt>
      <trkpt lat="42.759418" lon="1.044037">
        <ele>1611.9</ele>
        <time>2022-08-21T09:30:49Z</time>
      </trkpt>
      <trkpt lat="42.759486" lon="1.044123">
        <ele>1611.0</ele>
        <time>2022-08-21T09:30:56Z</time>
      </trkpt>
      <trkpt lat="42.759559" lon="1.044218">
        <ele>1609.9</ele>
        <time>2022-08-21T09:31:03Z</time>
      </trkpt>
      <trkpt lat="42.759641" lon="1.044281">
        <ele>1608.8</ele>
        <time>2022-08-21T09:31:09Z</time>
      </trkpt>
      <trkpt lat="42.759713" lon="1.044362">
        <ele>1608.1</ele>
        <time>2022-08-21T09:31:17Z</time>
      </trkpt>
      <trkpt lat="42.759794" lon="1.044448">
        <ele>1606.8</ele>
        <time>2022-08-21T09:31:27Z</time>
      </trkpt>
      <trkpt lat="42.759843" lon="1.044552">
        <ele>1606.2</ele>
        <time>2022-08-21T09:31:41Z</time>
      </trkpt>
      <trkpt lat="42.759923" lon="1.044641">
        <ele>1605.8</ele>
        <time>2022-08-21T09:31:51Z</time>
      </trkpt>
      <trkpt lat="42.759977" lon="1.044778">
        <ele>1604.9</ele>
        <time>2022-08-21T09:32:00Z</time>
      </trkpt>
      <trkpt lat="42.760009" lon="1.044894">
        <ele>1604.1</ele>
        <time>2022-08-21T09:32:08Z</time>
      </trkpt>
      <trkpt lat="42.760045" lon="1.045020">
        <ele>1603.6</ele>
        <time>2022-08-21T09:32:18Z</time>
      </trkpt>
      <trkpt lat="42.760055" lon="1.045144">
        <ele>1602.8</ele>
        <time>2022-08-21T09:32:26Z</time>
      </trkpt>
      <trkpt lat="42.760055" lon="1.045271">
        <ele>1602.2</ele>
        <time>2022-08-21T09:32:34Z</time>
      </trkpt>
      <trkpt lat="42.760058" lon="1.045401">
        <ele>1601.7</ele>
        <time>2022-08-21T09:32:42Z</time>
      </trkpt>
      <trkpt lat="42.760038" lon="1.045524">
        <ele>1600.9</ele>
        <time>2022-08-21T09:32:51Z</time>
      </trkpt>
      <trkpt lat="42.759973" lon="1.045625">
        <ele>1600.1</ele>
        <time>2022-08-21T09:32:58Z</time>
      </trkpt>
      <trkpt lat="42.759957" lon="1.045747">
        <ele>1599.1</ele>
        <time>2022-08-21T09:33:08Z</time>
      </trkpt>
      <trkpt lat="42.759908" lon="1.045859">
        <ele>1598.4</ele>
        <time>2022-08-21T09:33:19Z</time>
      </trkpt>
      <trkpt lat="42.759849" lon="1.045969">
        <ele>1597.3</ele>
        <time>2022-08-21T09:33:27Z</time>
      </trkpt>
      <trkpt lat="42.759851" lon="1.046095">
        <ele>1596.8</ele>
        <time>2022-08-21T09:33:34Z</time>
      </trkpt>
      <trkpt lat="42.759860" lon="1.046230">
        <ele>1596.1</ele>
        <time>2022-08-21T09:33:42Z</time>
      </trkpt>
      <trkpt lat="42.759893" lon="1.046370">
        <ele>1596.1</ele>
        <time>2022-08-21T09:33:51Z</time>
      </trkpt>
      <trkpt lat="42.759918" lon="1.046494">
        <ele>1596.7</ele>
        <time>2022-08-21T09:34:10Z</time>
      </trkpt>
      <trkpt lat="42.759918" lon="1.046639">
        <ele>1596.8</ele>
        <time>2022-08-21T09:34:18Z</time>
      </trkpt>
      <trkpt lat="42.759927" lon="1.046765">
        <ele>1596.8</ele>
        <time>2022-08-21T09:34:26Z</time>
      </trkpt>
      <trkpt lat="42.759906" lon="1.046904">
        <ele>1596.7</ele>
        <time>2022-08-21T09:34:35Z</time>
      </trkpt>
      <trkpt lat="42.759880" lon="1.047032">
        <ele>1596.8</ele>
        <time>2022-08-21T09:34:45Z</time>
      </trkpt>
      <trkpt lat="42.759858" lon="1.047154">
        <ele>1598.2</ele>
        <time>2022-08-21T09:35:28Z</time>
      </trkpt>
      <trkpt lat="42.759799" lon="1.047244">
        <ele>1597.9</ele>
        <time>2022-08-21T09:35:37Z</time>
      </trkpt>
      <trkpt lat="42.759762" lon="1.047489">
        <ele>1601.4</ele>
        <time>2022-08-21T09:51:50Z</time>
      </trkpt>
      <trkpt lat="42.759770" lon="1.047487">
        <ele>1601.4</ele>
        <time>2022-08-21T09:51:51Z</time>
      </trkpt>
      <trkpt lat="42.759691" lon="1.047423">
        <ele>1603.9</ele>
        <time>2022-08-21T09:53:16Z</time>
      </trkpt>
      <trkpt lat="42.759642" lon="1.047530">
        <ele>1605.5</ele>
        <time>2022-08-21T09:53:33Z</time>
      </trkpt>
      <trkpt lat="42.759615" lon="1.047652">
        <ele>1606.7</ele>
        <time>2022-08-21T09:53:49Z</time>
      </trkpt>
      <trkpt lat="42.759519" lon="1.047629">
        <ele>1607.7</ele>
        <time>2022-08-21T09:54:11Z</time>
      </trkpt>
      <trkpt lat="42.759420" lon="1.047626">
        <ele>1610.6</ele>
        <time>2022-08-21T09:54:36Z</time>
      </trkpt>
      <trkpt lat="42.759324" lon="1.047661">
        <ele>1611.4</ele>
        <time>2022-08-21T09:55:03Z</time>
      </trkpt>
      <trkpt lat="42.759354" lon="1.047803">
        <ele>1611.0</ele>
        <time>2022-08-21T09:55:18Z</time>
      </trkpt>
      <trkpt lat="42.759308" lon="1.047696">
        <ele>1611.0</ele>
        <time>2022-08-21T09:55:38Z</time>
      </trkpt>
      <trkpt lat="42.759353" lon="1.047578">
        <ele>1610.9</ele>
        <time>2022-08-21T09:55:47Z</time>
      </trkpt>
      <trkpt lat="42.759427" lon="1.047507">
        <ele>1607.6</ele>
        <time>2022-08-21T09:56:10Z</time>
      </trkpt>
      <trkpt lat="42.759523" lon="1.047496">
        <ele>1606.7</ele>
        <time>2022-08-21T09:56:17Z</time>
      </trkpt>
      <trkpt lat="42.759617" lon="1.047518">
        <ele>1605.3</ele>
        <time>2022-08-21T09:56:25Z</time>
      </trkpt>
      <trkpt lat="42.759697" lon="1.047457">
        <ele>1604.3</ele>
        <time>2022-08-21T09:56:39Z</time>
      </trkpt>
      <trkpt lat="42.759789" lon="1.047418">
        <ele>1602.2</ele>
        <time>2022-08-21T09:56:51Z</time>
      </trkpt>
      <trkpt lat="42.759868" lon="1.047491">
        <ele>1601.7</ele>
        <time>2022-08-21T09:57:43Z</time>
      </trkpt>
      <trkpt lat="42.759929" lon="1.047396">
        <ele>1603.2</ele>
        <time>2022-08-21T09:58:17Z</time>
      </trkpt>
      <trkpt lat="42.759833" lon="1.047360">
        <ele>1603.1</ele>
        <time>2022-08-21T09:58:36Z</time>
      </trkpt>
      <trkpt lat="42.759746" lon="1.047324">
        <ele>1602.9</ele>
        <time>2022-08-21T09:59:16Z</time>
      </trkpt>
      <trkpt lat="42.759808" lon="1.047220">
        <ele>1601.8</ele>
        <time>2022-08-21T10:00:18Z</time>
      </trkpt>
      <trkpt lat="42.759867" lon="1.047116">
        <ele>1601.9</ele>
        <time>2022-08-21T10:00:28Z</time>
      </trkpt>
      <trkpt lat="42.759905" lon="1.046997">
        <ele>1601.7</ele>
        <time>2022-08-21T10:00:41Z</time>
      </trkpt>
      <trkpt lat="42.759980" lon="1.047066">
        <ele>1602.1</ele>
        <time>2022-08-21T10:01:19Z</time>
      </trkpt>
      <trkpt lat="42.759917" lon="1.047160">
        <ele>1602.4</ele>
        <time>2022-08-21T10:02:34Z</time>
      </trkpt>
      <trkpt lat="42.759853" lon="1.047074">
        <ele>1602.6</ele>
        <time>2022-08-21T10:04:12Z</time>
      </trkpt>
      <trkpt lat="42.759888" lon="1.046923">
        <ele>1602.3</ele>
        <time>2022-08-21T10:05:00Z</time>
      </trkpt>
      <trkpt lat="42.759887" lon="1.046795">
        <ele>1602.4</ele>
        <time>2022-08-21T10:05:13Z</time>
      </trkpt>
      <trkpt lat="42.759880" lon="1.046654">
        <ele>1602.5</ele>
        <time>2022-08-21T10:05:27Z</time>
      </trkpt>
      <trkpt lat="42.759880" lon="1.046529">
        <ele>1602.7</ele>
        <time>2022-08-21T10:05:35Z</time>
      </trkpt>
      <trkpt lat="42.759861" lon="1.046403">
        <ele>1602.7</ele>
        <time>2022-08-21T10:05:44Z</time>
      </trkpt>
      <trkpt lat="42.759849" lon="1.046269">
        <ele>1602.3</ele>
        <time>2022-08-21T10:05:50Z</time>
      </trkpt>
      <trkpt lat="42.759842" lon="1.046142">
        <ele>1601.8</ele>
        <time>2022-08-21T10:05:56Z</time>
      </trkpt>
      <trkpt lat="42.759882" lon="1.046030">
        <ele>1601.8</ele>
        <time>2022-08-21T10:06:06Z</time>
      </trkpt>
      <trkpt lat="42.759901" lon="1.045904">
        <ele>1602.5</ele>
        <time>2022-08-21T10:06:19Z</time>
      </trkpt>
      <trkpt lat="42.759960" lon="1.045791">
        <ele>1603.9</ele>
        <time>2022-08-21T10:06:31Z</time>
      </trkpt>
      <trkpt lat="42.759993" lon="1.045664">
        <ele>1604.6</ele>
        <time>2022-08-21T10:06:39Z</time>
      </trkpt>
      <trkpt lat="42.760014" lon="1.045540">
        <ele>1605.3</ele>
        <time>2022-08-21T10:06:49Z</time>
      </trkpt>
      <trkpt lat="42.760026" lon="1.045413">
        <ele>1606.6</ele>
        <time>2022-08-21T10:06:59Z</time>
      </trkpt>
      <trkpt lat="42.760022" lon="1.045278">
        <ele>1607.3</ele>
        <time>2022-08-21T10:07:09Z</time>
      </trkpt>
      <trkpt lat="42.760020" lon="1.045150">
        <ele>1608.3</ele>
        <time>2022-08-21T10:07:17Z</time>
      </trkpt>
      <trkpt lat="42.759980" lon="1.045033">
        <ele>1609.0</ele>
        <time>2022-08-21T10:07:25Z</time>
      </trkpt>
      <trkpt lat="42.759940" lon="1.044905">
        <ele>1609.4</ele>
        <time>2022-08-21T10:07:34Z</time>
      </trkpt>
      <trkpt lat="42.759893" lon="1.044795">
        <ele>1610.0</ele>
        <time>2022-08-21T10:07:44Z</time>
      </trkpt>
      <trkpt lat="42.759833" lon="1.044678">
        <ele>1610.6</ele>
        <time>2022-08-21T10:07:55Z</time>
      </trkpt>
      <trkpt lat="42.759751" lon="1.044603">
        <ele>1611.1</ele>
        <time>2022-08-21T10:08:03Z</time>
      </trkpt>
      <trkpt lat="42.759708" lon="1.044490">
        <ele>1612.1</ele>
        <time>2022-08-21T10:08:16Z</time>
      </trkpt>
      <trkpt lat="42.759648" lon="1.044398">
        <ele>1613.0</ele>
        <time>2022-08-21T10:08:25Z</time>
      </trkpt>
      <trkpt lat="42.759570" lon="1.044300">
        <ele>1613.7</ele>
        <time>2022-08-21T10:08:33Z</time>
      </trkpt>
      <trkpt lat="42.759525" lon="1.044188">
        <ele>1614.3</ele>
        <time>2022-08-21T10:08:42Z</time>
      </trkpt>
      <trkpt lat="42.759457" lon="1.044095">
        <ele>1615.8</ele>
        <time>2022-08-21T10:08:53Z</time>
      </trkpt>
      <trkpt lat="42.759397" lon="1.044002">
        <ele>1617.0</ele>
        <time>2022-08-21T10:09:02Z</time>
      </trkpt>
      <trkpt lat="42.759351" lon="1.043896">
        <ele>1618.8</ele>
        <time>2022-08-21T10:09:16Z</time>
      </trkpt>
      <trkpt lat="42.759293" lon="1.043800">
        <ele>1619.7</ele>
        <time>2022-08-21T10:09:26Z</time>
      </trkpt>
      <trkpt lat="42.759197" lon="1.043788">
        <ele>1620.2</ele>
        <time>2022-08-21T10:09:36Z</time>
      </trkpt>
      <trkpt lat="42.759102" lon="1.043764">
        <ele>1620.8</ele>
        <time>2022-08-21T10:09:48Z</time>
      </trkpt>
      <trkpt lat="42.759032" lon="1.043679">
        <ele>1622.1</ele>
        <time>2022-08-21T10:09:58Z</time>
      </trkpt>
      <trkpt lat="42.758960" lon="1.043586">
        <ele>1623.6</ele>
        <time>2022-08-21T10:10:09Z</time>
      </trkpt>
      <trkpt lat="42.758911" lon="1.043482">
        <ele>1624.4</ele>
        <time>2022-08-21T10:10:18Z</time>
      </trkpt>
      <trkpt lat="42.758873" lon="1.043363">
        <ele>1625.1</ele>
        <time>2022-08-21T10:10:27Z</time>
      </trkpt>
      <trkpt lat="42.758818" lon="1.043255">
        <ele>1626.1</ele>
        <time>2022-08-21T10:10:39Z</time>
      </trkpt>
      <trkpt lat="42.758812" lon="1.043129">
        <ele>1626.6</ele>
        <time>2022-08-21T10:10:48Z</time>
      </trkpt>
      <trkpt lat="42.758795" lon="1.043003">
        <ele>1627.6</ele>
        <time>2022-08-21T10:11:00Z</time>
      </trkpt>
      <trkpt lat="42.758756" lon="1.042890">
        <ele>1628.4</ele>
        <time>2022-08-21T10:11:10Z</time>
      </trkpt>
      <trkpt lat="42.758704" lon="1.042789">
        <ele>1629.2</ele>
        <time>2022-08-21T10:11:17Z</time>
      </trkpt>
      <trkpt lat="42.758668" lon="1.042672">
        <ele>1630.1</ele>
        <time>2022-08-21T10:11:29Z</time>
      </trkpt>
      <trkpt lat="42.758631" lon="1.042557">
        <ele>1630.6</ele>
        <time>2022-08-21T10:11:37Z</time>
      </trkpt>
      <trkpt lat="42.758565" lon="1.042469">
        <ele>1630.8</ele>
        <time>2022-08-21T10:11:44Z</time>
      </trkpt>
      <trkpt lat="42.758526" lon="1.042355">
        <ele>1631.0</ele>
        <time>2022-08-21T10:11:52Z</time>
      </trkpt>
      <trkpt lat="42.758479" lon="1.042248">
        <ele>1631.1</ele>
        <time>2022-08-21T10:12:00Z</time>
      </trkpt>
      <trkpt lat="42.758437" lon="1.042131">
        <ele>1631.2</ele>
        <time>2022-08-21T10:12:09Z</time>
      </trkpt>
      <trkpt lat="42.758399" lon="1.042003">
        <ele>1631.8</ele>
        <time>2022-08-21T10:12:18Z</time>
      </trkpt>
      <trkpt lat="42.758349" lon="1.041894">
        <ele>1631.6</ele>
        <time>2022-08-21T10:12:27Z</time>
      </trkpt>
      <trkpt lat="42.758349" lon="1.041765">
        <ele>1630.9</ele>
        <time>2022-08-21T10:12:36Z</time>
      </trkpt>
      <trkpt lat="42.758367" lon="1.041643">
        <ele>1630.5</ele>
        <time>2022-08-21T10:12:42Z</time>
      </trkpt>
      <trkpt lat="42.758399" lon="1.041514">
        <ele>1631.1</ele>
        <time>2022-08-21T10:12:51Z</time>
      </trkpt>
      <trkpt lat="42.758423" lon="1.041388">
        <ele>1631.6</ele>
        <time>2022-08-21T10:13:04Z</time>
      </trkpt>
      <trkpt lat="42.758405" lon="1.041267">
        <ele>1630.6</ele>
        <time>2022-08-21T10:13:14Z</time>
      </trkpt>
      <trkpt lat="42.758401" lon="1.041143">
        <ele>1630.2</ele>
        <time>2022-08-21T10:13:23Z</time>
      </trkpt>
      <trkpt lat="42.758389" lon="1.041013">
        <ele>1629.9</ele>
        <time>2022-08-21T10:13:31Z</time>
      </trkpt>
      <trkpt lat="42.758402" lon="1.040869">
        <ele>1629.3</ele>
        <time>2022-08-21T10:13:41Z</time>
      </trkpt>
      <trkpt lat="42.758445" lon="1.040744">
        <ele>1628.8</ele>
        <time>2022-08-21T10:13:50Z</time>
      </trkpt>
      <trkpt lat="42.758515" lon="1.040645">
        <ele>1629.2</ele>
        <time>2022-08-21T10:14:01Z</time>
      </trkpt>
      <trkpt lat="42.758567" lon="1.040543">
        <ele>1629.2</ele>
        <time>2022-08-21T10:14:19Z</time>
      </trkpt>
      <trkpt lat="42.758607" lon="1.040433">
        <ele>1628.1</ele>
        <time>2022-08-21T10:14:51Z</time>
      </trkpt>
      <trkpt lat="42.758685" lon="1.040360">
        <ele>1628.6</ele>
        <time>2022-08-21T10:15:09Z</time>
      </trkpt>
      <trkpt lat="42.758727" lon="1.040233">
        <ele>1628.0</ele>
        <time>2022-08-21T10:15:35Z</time>
      </trkpt>
      <trkpt lat="42.758814" lon="1.040155">
        <ele>1628.9</ele>
        <time>2022-08-21T10:15:44Z</time>
      </trkpt>
      <trkpt lat="42.758850" lon="1.040040">
        <ele>1629.4</ele>
        <time>2022-08-21T10:15:52Z</time>
      </trkpt>
      <trkpt lat="42.758865" lon="1.039908">
        <ele>1629.7</ele>
        <time>2022-08-21T10:16:02Z</time>
      </trkpt>
      <trkpt lat="42.758870" lon="1.039781">
        <ele>1630.0</ele>
        <time>2022-08-21T10:16:14Z</time>
      </trkpt>
      <trkpt lat="42.758886" lon="1.039645">
        <ele>1630.3</ele>
        <time>2022-08-21T10:16:23Z</time>
      </trkpt>
      <trkpt lat="42.758909" lon="1.039517">
        <ele>1630.4</ele>
        <time>2022-08-21T10:16:32Z</time>
      </trkpt>
      <trkpt lat="42.758947" lon="1.039393">
        <ele>1630.9</ele>
        <time>2022-08-21T10:16:41Z</time>
      </trkpt>
      <trkpt lat="42.758945" lon="1.039268">
        <ele>1631.0</ele>
        <time>2022-08-21T10:16:49Z</time>
      </trkpt>
      <trkpt lat="42.758941" lon="1.039135">
        <ele>1631.5</ele>
        <time>2022-08-21T10:17:00Z</time>
      </trkpt>
      <trkpt lat="42.758938" lon="1.039012">
        <ele>1632.1</ele>
        <time>2022-08-21T10:17:09Z</time>
      </trkpt>
      <trkpt lat="42.758950" lon="1.038874">
        <ele>1632.5</ele>
        <time>2022-08-21T10:17:17Z</time>
      </trkpt>
      <trkpt lat="42.758957" lon="1.038741">
        <ele>1632.5</ele>
        <time>2022-08-21T10:17:26Z</time>
      </trkpt>
      <trkpt lat="42.758938" lon="1.038594">
        <ele>1632.2</ele>
        <time>2022-08-21T10:17:37Z</time>
      </trkpt>
      <trkpt lat="42.758936" lon="1.038452">
        <ele>1632.5</ele>
        <time>2022-08-21T10:17:47Z</time>
      </trkpt>
      <trkpt lat="42.758920" lon="1.038331">
        <ele>1632.7</ele>
        <time>2022-08-21T10:17:55Z</time>
      </trkpt>
      <trkpt lat="42.758907" lon="1.038200">
        <ele>1632.3</ele>
        <time>2022-08-21T10:18:04Z</time>
      </trkpt>
      <trkpt lat="42.758890" lon="1.038067">
        <ele>1632.0</ele>
        <time>2022-08-21T10:18:14Z</time>
      </trkpt>
      <trkpt lat="42.758914" lon="1.037944">
        <ele>1632.2</ele>
        <time>2022-08-21T10:18:23Z</time>
      </trkpt>
      <trkpt lat="42.758930" lon="1.037818">
        <ele>1633.1</ele>
        <time>2022-08-21T10:18:34Z</time>
      </trkpt>
      <trkpt lat="42.758949" lon="1.037695">
        <ele>1633.9</ele>
        <time>2022-08-21T10:18:44Z</time>
      </trkpt>
      <trkpt lat="42.758982" lon="1.037581">
        <ele>1635.0</ele>
        <time>2022-08-21T10:18:54Z</time>
      </trkpt>
      <trkpt lat="42.759012" lon="1.037444">
        <ele>1635.0</ele>
        <time>2022-08-21T10:19:04Z</time>
      </trkpt>
      <trkpt lat="42.759025" lon="1.037310">
        <ele>1635.4</ele>
        <time>2022-08-21T10:19:13Z</time>
      </trkpt>
      <trkpt lat="42.759052" lon="1.037193">
        <ele>1635.8</ele>
        <time>2022-08-21T10:19:21Z</time>
      </trkpt>
      <trkpt lat="42.759041" lon="1.037057">
        <ele>1636.2</ele>
        <time>2022-08-21T10:19:31Z</time>
      </trkpt>
      <trkpt lat="42.758989" lon="1.036955">
        <ele>1636.4</ele>
        <time>2022-08-21T10:19:38Z</time>
      </trkpt>
      <trkpt lat="42.758996" lon="1.036824">
        <ele>1636.3</ele>
        <time>2022-08-21T10:19:45Z</time>
      </trkpt>
      <trkpt lat="42.758960" lon="1.036699">
        <ele>1636.7</ele>
        <time>2022-08-21T10:19:57Z</time>
      </trkpt>
      <trkpt lat="42.759029" lon="1.036612">
        <ele>1636.4</ele>
        <time>2022-08-21T10:20:08Z</time>
      </trkpt>
      <trkpt lat="42.759030" lon="1.036489">
        <ele>1635.9</ele>
        <time>2022-08-21T10:20:19Z</time>
      </trkpt>
      <trkpt lat="42.759010" lon="1.036365">
        <ele>1636.7</ele>
        <time>2022-08-21T10:20:27Z</time>
      </trkpt>
      <trkpt lat="42.758996" lon="1.036234">
        <ele>1637.2</ele>
        <time>2022-08-21T10:20:35Z</time>
      </trkpt>
      <trkpt lat="42.758913" lon="1.036149">
        <ele>1637.0</ele>
        <time>2022-08-21T10:20:42Z</time>
      </trkpt>
      <trkpt lat="42.758881" lon="1.036018">
        <ele>1636.9</ele>
        <time>2022-08-21T10:20:52Z</time>
      </trkpt>
      <trkpt lat="42.758812" lon="1.035932">
        <ele>1637.6</ele>
        <time>2022-08-21T10:21:08Z</time>
      </trkpt>
      <trkpt lat="42.758778" lon="1.035806">
        <ele>1638.0</ele>
        <time>2022-08-21T10:21:18Z</time>
      </trkpt>
      <trkpt lat="42.758745" lon="1.035684">
        <ele>1638.3</ele>
        <time>2022-08-21T10:21:27Z</time>
      </trkpt>
      <trkpt lat="42.758706" lon="1.035572">
        <ele>1638.0</ele>
        <time>2022-08-21T10:21:35Z</time>
      </trkpt>
      <trkpt lat="42.758668" lon="1.035459">
        <ele>1636.9</ele>
        <time>2022-08-21T10:21:44Z</time>
      </trkpt>
      <trkpt lat="42.758610" lon="1.035354">
        <ele>1634.6</ele>
        <time>2022-08-21T10:22:03Z</time>
      </trkpt>
      <trkpt lat="42.758598" lon="1.035227">
        <ele>1634.0</ele>
        <time>2022-08-21T10:22:10Z</time>
      </trkpt>
      <trkpt lat="42.758557" lon="1.035112">
        <ele>1633.7</ele>
        <time>2022-08-21T10:22:17Z</time>
      </trkpt>
      <trkpt lat="42.758566" lon="1.034984">
        <ele>1632.9</ele>
        <time>2022-08-21T10:22:26Z</time>
      </trkpt>
      <trkpt lat="42.758490" lon="1.034919">
        <ele>1632.9</ele>
        <time>2022-08-21T10:22:33Z</time>
      </trkpt>
      <trkpt lat="42.758470" lon="1.034793">
        <ele>1632.7</ele>
        <time>2022-08-21T10:22:43Z</time>
      </trkpt>
      <trkpt lat="42.758405" lon="1.034703">
        <ele>1633.1</ele>
        <time>2022-08-21T10:22:52Z</time>
      </trkpt>
      <trkpt lat="42.758355" lon="1.034600">
        <ele>1633.8</ele>
        <time>2022-08-21T10:23:01Z</time>
      </trkpt>
      <trkpt lat="42.758336" lon="1.034470">
        <ele>1635.3</ele>
        <time>2022-08-21T10:23:14Z</time>
      </trkpt>
      <trkpt lat="42.758304" lon="1.034341">
        <ele>1635.4</ele>
        <time>2022-08-21T10:23:22Z</time>
      </trkpt>
      <trkpt lat="42.758278" lon="1.034214">
        <ele>1635.3</ele>
        <time>2022-08-21T10:23:30Z</time>
      </trkpt>
      <trkpt lat="42.758218" lon="1.034117">
        <ele>1635.4</ele>
        <time>2022-08-21T10:23:40Z</time>
      </trkpt>
      <trkpt lat="42.758197" lon="1.033984">
        <ele>1635.7</ele>
        <time>2022-08-21T10:23:48Z</time>
      </trkpt>
      <trkpt lat="42.758181" lon="1.033854">
        <ele>1636.0</ele>
        <time>2022-08-21T10:23:55Z</time>
      </trkpt>
      <trkpt lat="42.758169" lon="1.033726">
        <ele>1636.2</ele>
        <time>2022-08-21T10:24:01Z</time>
      </trkpt>
      <trkpt lat="42.758160" lon="1.033597">
        <ele>1635.9</ele>
        <time>2022-08-21T10:24:07Z</time>
      </trkpt>
      <trkpt lat="42.758148" lon="1.033472">
        <ele>1636.0</ele>
        <time>2022-08-21T10:24:15Z</time>
      </trkpt>
      <trkpt lat="42.758147" lon="1.033340">
        <ele>1635.9</ele>
        <time>2022-08-21T10:24:25Z</time>
      </trkpt>
      <trkpt lat="42.758119" lon="1.033212">
        <ele>1636.4</ele>
        <time>2022-08-21T10:24:34Z</time>
      </trkpt>
      <trkpt lat="42.758135" lon="1.033084">
        <ele>1636.8</ele>
        <time>2022-08-21T10:24:42Z</time>
      </trkpt>
      <trkpt lat="42.758152" lon="1.032945">
        <ele>1635.9</ele>
        <time>2022-08-21T10:24:50Z</time>
      </trkpt>
      <trkpt lat="42.758128" lon="1.032818">
        <ele>1635.4</ele>
        <time>2022-08-21T10:25:00Z</time>
      </trkpt>
      <trkpt lat="42.758044" lon="1.032764">
        <ele>1633.9</ele>
        <time>2022-08-21T10:25:20Z</time>
      </trkpt>
      <trkpt lat="42.757950" lon="1.032797">
        <ele>1632.3</ele>
        <time>2022-08-21T10:25:29Z</time>
      </trkpt>
      <trkpt lat="42.757849" lon="1.032831">
        <ele>1631.0</ele>
        <time>2022-08-21T10:25:43Z</time>
      </trkpt>
      <trkpt lat="42.757757" lon="1.032846">
        <ele>1630.0</ele>
        <time>2022-08-21T10:25:51Z</time>
      </trkpt>
      <trkpt lat="42.757664" lon="1.032865">
        <ele>1628.7</ele>
        <time>2022-08-21T10:26:00Z</time>
      </trkpt>
      <trkpt lat="42.757576" lon="1.032812">
        <ele>1628.1</ele>
        <time>2022-08-21T10:26:09Z</time>
      </trkpt>
      <trkpt lat="42.757491" lon="1.032741">
        <ele>1627.2</ele>
        <time>2022-08-21T10:26:16Z</time>
      </trkpt>
      <trkpt lat="42.757416" lon="1.032646">
        <ele>1626.5</ele>
        <time>2022-08-21T10:26:26Z</time>
      </trkpt>
      <trkpt lat="42.757356" lon="1.032546">
        <ele>1625.6</ele>
        <time>2022-08-21T10:26:35Z</time>
      </trkpt>
      <trkpt lat="42.757328" lon="1.032421">
        <ele>1625.7</ele>
        <time>2022-08-21T10:26:46Z</time>
      </trkpt>
      <trkpt lat="42.757363" lon="1.032296">
        <ele>1625.4</ele>
        <time>2022-08-21T10:26:51Z</time>
      </trkpt>
      <trkpt lat="42.757342" lon="1.032173">
        <ele>1625.4</ele>
        <time>2022-08-21T10:27:02Z</time>
      </trkpt>
      <trkpt lat="42.757299" lon="1.032051">
        <ele>1624.2</ele>
        <time>2022-08-21T10:27:15Z</time>
      </trkpt>
      <trkpt lat="42.757275" lon="1.031931">
        <ele>1624.5</ele>
        <time>2022-08-21T10:27:30Z</time>
      </trkpt>
      <trkpt lat="42.757231" lon="1.031812">
        <ele>1623.5</ele>
        <time>2022-08-21T10:27:41Z</time>
      </trkpt>
      <trkpt lat="42.757194" lon="1.031695">
        <ele>1623.3</ele>
        <time>2022-08-21T10:27:53Z</time>
      </trkpt>
      <trkpt lat="42.757189" lon="1.031568">
        <ele>1622.3</ele>
        <time>2022-08-21T10:28:04Z</time>
      </trkpt>
      <trkpt lat="42.757132" lon="1.031470">
        <ele>1621.6</ele>
        <time>2022-08-21T10:28:14Z</time>
      </trkpt>
      <trkpt lat="42.757087" lon="1.031356">
        <ele>1621.1</ele>
        <time>2022-08-21T10:28:25Z</time>
      </trkpt>
      <trkpt lat="42.757054" lon="1.031236">
        <ele>1620.9</ele>
        <time>2022-08-21T10:28:33Z</time>
      </trkpt>
      <trkpt lat="42.757023" lon="1.031117">
        <ele>1620.4</ele>
        <time>2022-08-21T10:28:44Z</time>
      </trkpt>
      <trkpt lat="42.756988" lon="1.030991">
        <ele>1620.2</ele>
        <time>2022-08-21T10:28:53Z</time>
      </trkpt>
      <trkpt lat="42.756975" lon="1.030860">
        <ele>1619.2</ele>
        <time>2022-08-21T10:29:01Z</time>
      </trkpt>
      <trkpt lat="42.756953" lon="1.030735">
        <ele>1617.5</ele>
        <time>2022-08-21T10:29:11Z</time>
      </trkpt>
      <trkpt lat="42.756925" lon="1.030614">
        <ele>1615.5</ele>
        <time>2022-08-21T10:29:28Z</time>
      </trkpt>
      <trkpt lat="42.756853" lon="1.030534">
        <ele>1617.5</ele>
        <time>2022-08-21T10:29:56Z</time>
      </trkpt>
      <trkpt lat="42.756944" lon="1.030497">
        <ele>1617.4</ele>
        <time>2022-08-21T10:30:37Z</time>
      </trkpt>
      <trkpt lat="42.757021" lon="1.030561">
        <ele>1617.5</ele>
        <time>2022-08-21T10:30:56Z</time>
      </trkpt>
      <trkpt lat="42.756929" lon="1.030554">
        <ele>1617.8</ele>
        <time>2022-08-21T10:31:18Z</time>
      </trkpt>
      <trkpt lat="42.756849" lon="1.030495">
        <ele>1617.1</ele>
        <time>2022-08-21T10:31:30Z</time>
      </trkpt>
      <trkpt lat="42.756817" lon="1.030369">
        <ele>1616.1</ele>
        <time>2022-08-21T10:31:43Z</time>
      </trkpt>
      <trkpt lat="42.756834" lon="1.030239">
        <ele>1615.5</ele>
        <time>2022-08-21T10:32:04Z</time>
      </trkpt>
      <trkpt lat="42.756889" lon="1.030140">
        <ele>1614.9</ele>
        <time>2022-08-21T10:32:13Z</time>
      </trkpt>
      <trkpt lat="42.756947" lon="1.030026">
        <ele>1614.6</ele>
        <time>2022-08-21T10:32:20Z</time>
      </trkpt>
      <trkpt lat="42.757017" lon="1.029942">
        <ele>1614.4</ele>
        <time>2022-08-21T10:32:33Z</time>
      </trkpt>
      <trkpt lat="42.757022" lon="1.029816">
        <ele>1614.3</ele>
        <time>2022-08-21T10:32:52Z</time>
      </trkpt>
      <trkpt lat="42.757029" lon="1.029678">
        <ele>1614.7</ele>
        <time>2022-08-21T10:33:04Z</time>
      </trkpt>
      <trkpt lat="42.757030" lon="1.029551">
        <ele>1615.2</ele>
        <time>2022-08-21T10:33:12Z</time>
      </trkpt>
      <trkpt lat="42.757008" lon="1.029388">
        <ele>1615.3</ele>
        <time>2022-08-21T10:33:21Z</time>
      </trkpt>
      <trkpt lat="42.757017" lon="1.029266">
        <ele>1615.8</ele>
        <time>2022-08-21T10:33:27Z</time>
      </trkpt>
      <trkpt lat="42.757034" lon="1.029142">
        <ele>1616.0</ele>
        <time>2022-08-21T10:33:35Z</time>
      </trkpt>
      <trkpt lat="42.757036" lon="1.029015">
        <ele>1616.0</ele>
        <time>2022-08-21T10:33:45Z</time>
      </trkpt>
      <trkpt lat="42.757085" lon="1.028889">
        <ele>1616.2</ele>
        <time>2022-08-21T10:33:51Z</time>
      </trkpt>
      <trkpt lat="42.757104" lon="1.028762">
        <ele>1616.4</ele>
        <time>2022-08-21T10:33:59Z</time>
      </trkpt>
      <trkpt lat="42.757166" lon="1.028630">
        <ele>1616.6</ele>
        <time>2022-08-21T10:34:08Z</time>
      </trkpt>
      <trkpt lat="42.757104" lon="1.028504">
        <ele>1616.8</ele>
        <time>2022-08-21T10:34:17Z</time>
      </trkpt>
      <trkpt lat="42.757105" lon="1.028372">
        <ele>1617.1</ele>
        <time>2022-08-21T10:34:25Z</time>
      </trkpt>
      <trkpt lat="42.757178" lon="1.028290">
        <ele>1617.3</ele>
        <time>2022-08-21T10:34:44Z</time>
      </trkpt>
      <trkpt lat="42.757186" lon="1.028166">
        <ele>1617.4</ele>
        <time>2022-08-21T10:34:57Z</time>
      </trkpt>
      <trkpt lat="42.757171" lon="1.028034">
        <ele>1618.0</ele>
        <time>2022-08-21T10:35:06Z</time>
      </trkpt>
      <trkpt lat="42.757154" lon="1.027907">
        <ele>1619.3</ele>
        <time>2022-08-21T10:35:18Z</time>
      </trkpt>
      <trkpt lat="42.757154" lon="1.027782">
        <ele>1619.4</ele>
        <time>2022-08-21T10:35:32Z</time>
      </trkpt>
      <trkpt lat="42.757142" lon="1.027658">
        <ele>1619.1</ele>
        <time>2022-08-21T10:35:45Z</time>
      </trkpt>
      <trkpt lat="42.757177" lon="1.027527">
        <ele>1619.2</ele>
        <time>2022-08-21T10:35:53Z</time>
      </trkpt>
      <trkpt lat="42.757142" lon="1.027405">
        <ele>1619.5</ele>
        <time>2022-08-21T10:36:04Z</time>
      </trkpt>
      <trkpt lat="42.757210" lon="1.027299">
        <ele>1620.2</ele>
        <time>2022-08-21T10:36:12Z</time>
      </trkpt>
      <trkpt lat="42.757234" lon="1.027169">
        <ele>1620.5</ele>
        <time>2022-08-21T10:36:21Z</time>
      </trkpt>
      <trkpt lat="42.757216" lon="1.027044">
        <ele>1620.4</ele>
        <time>2022-08-21T10:36:28Z</time>
      </trkpt>
      <trkpt lat="42.757200" lon="1.026915">
        <ele>1620.0</ele>
        <time>2022-08-21T10:37:02Z</time>
      </trkpt>
      <trkpt lat="42.757209" lon="1.026786">
        <ele>1619.9</ele>
        <time>2022-08-21T10:37:11Z</time>
      </trkpt>
      <trkpt lat="42.757219" lon="1.026652">
        <ele>1619.9</ele>
        <time>2022-08-21T10:37:21Z</time>
      </trkpt>
      <trkpt lat="42.757240" lon="1.026529">
        <ele>1620.4</ele>
        <time>2022-08-21T10:37:30Z</time>
      </trkpt>
      <trkpt lat="42.757263" lon="1.026408">
        <ele>1621.8</ele>
        <time>2022-08-21T10:37:41Z</time>
      </trkpt>
      <trkpt lat="42.757261" lon="1.026283">
        <ele>1622.4</ele>
        <time>2022-08-21T10:37:50Z</time>
      </trkpt>
      <trkpt lat="42.757241" lon="1.026164">
        <ele>1622.5</ele>
        <time>2022-08-21T10:37:56Z</time>
      </trkpt>
      <trkpt lat="42.757276" lon="1.026037">
        <ele>1622.8</ele>
        <time>2022-08-21T10:38:06Z</time>
      </trkpt>
      <trkpt lat="42.757291" lon="1.025911">
        <ele>1623.8</ele>
        <time>2022-08-21T10:38:15Z</time>
      </trkpt>
      <trkpt lat="42.757313" lon="1.025788">
        <ele>1625.0</ele>
        <time>2022-08-21T10:38:25Z</time>
      </trkpt>
      <trkpt lat="42.757362" lon="1.025674">
        <ele>1626.8</ele>
        <time>2022-08-21T10:38:36Z</time>
      </trkpt>
      <trkpt lat="42.757428" lon="1.025570">
        <ele>1627.7</ele>
        <time>2022-08-21T10:38:46Z</time>
      </trkpt>
      <trkpt lat="42.757414" lon="1.025446">
        <ele>1628.1</ele>
        <time>2022-08-21T10:38:56Z</time>
      </trkpt>
      <trkpt lat="42.757444" lon="1.025314">
        <ele>1628.2</ele>
        <time>2022-08-21T10:39:04Z</time>
      </trkpt>
      <trkpt lat="42.757498" lon="1.025214">
        <ele>1628.8</ele>
        <time>2022-08-21T10:39:15Z</time>
      </trkpt>
      <trkpt lat="42.757542" lon="1.025095">
        <ele>1629.3</ele>
        <time>2022-08-21T10:39:23Z</time>
      </trkpt>
      <trkpt lat="42.757590" lon="1.024986">
        <ele>1629.9</ele>
        <time>2022-08-21T10:39:32Z</time>
      </trkpt>
      <trkpt lat="42.757638" lon="1.024868">
        <ele>1630.5</ele>
        <time>2022-08-21T10:39:41Z</time>
      </trkpt>
      <trkpt lat="42.757677" lon="1.024747">
        <ele>1630.7</ele>
        <time>2022-08-21T10:39:49Z</time>
      </trkpt>
      <trkpt lat="42.757688" lon="1.024603">
        <ele>1631.1</ele>
        <time>2022-08-21T10:40:00Z</time>
      </trkpt>
      <trkpt lat="42.757748" lon="1.024508">
        <ele>1630.7</ele>
        <time>2022-08-21T10:40:07Z</time>
      </trkpt>
      <trkpt lat="42.757800" lon="1.024399">
        <ele>1630.6</ele>
        <time>2022-08-21T10:40:15Z</time>
      </trkpt>
      <trkpt lat="42.757862" lon="1.024290">
        <ele>1630.2</ele>
        <time>2022-08-21T10:40:22Z</time>
      </trkpt>
      <trkpt lat="42.757885" lon="1.024161">
        <ele>1629.7</ele>
        <time>2022-08-21T10:40:32Z</time>
      </trkpt>
      <trkpt lat="42.757886" lon="1.024039">
        <ele>1629.4</ele>
        <time>2022-08-21T10:40:39Z</time>
      </trkpt>
      <trkpt lat="42.757922" lon="1.023909">
        <ele>1628.0</ele>
        <time>2022-08-21T10:40:47Z</time>
      </trkpt>
      <trkpt lat="42.757966" lon="1.023801">
        <ele>1627.3</ele>
        <time>2022-08-21T10:40:54Z</time>
      </trkpt>
      <trkpt lat="42.757991" lon="1.023680">
        <ele>1627.3</ele>
        <time>2022-08-21T10:41:03Z</time>
      </trkpt>
      <trkpt lat="42.758032" lon="1.023563">
        <ele>1627.7</ele>
        <time>2022-08-21T10:41:11Z</time>
      </trkpt>
      <trkpt lat="42.758082" lon="1.023440">
        <ele>1627.9</ele>
        <time>2022-08-21T10:41:20Z</time>
      </trkpt>
      <trkpt lat="42.758129" lon="1.023323">
        <ele>1628.0</ele>
        <time>2022-08-21T10:41:27Z</time>
      </trkpt>
      <trkpt lat="42.758167" lon="1.023196">
        <ele>1628.6</ele>
        <time>2022-08-21T10:41:38Z</time>
      </trkpt>
      <trkpt lat="42.758207" lon="1.023052">
        <ele>1628.5</ele>
        <time>2022-08-21T10:41:50Z</time>
      </trkpt>
      <trkpt lat="42.758230" lon="1.022928">
        <ele>1628.3</ele>
        <time>2022-08-21T10:41:57Z</time>
      </trkpt>
      <trkpt lat="42.758279" lon="1.022825">
        <ele>1628.0</ele>
        <time>2022-08-21T10:42:02Z</time>
      </trkpt>
      <trkpt lat="42.758332" lon="1.022723">
        <ele>1628.0</ele>
        <time>2022-08-21T10:42:10Z</time>
      </trkpt>
      <trkpt lat="42.758391" lon="1.022602">
        <ele>1627.7</ele>
        <time>2022-08-21T10:42:18Z</time>
      </trkpt>
      <trkpt lat="42.758424" lon="1.022472">
        <ele>1627.3</ele>
        <time>2022-08-21T10:42:28Z</time>
      </trkpt>
      <trkpt lat="42.758488" lon="1.022339">
        <ele>1627.0</ele>
        <time>2022-08-21T10:42:36Z</time>
      </trkpt>
      <trkpt lat="42.758525" lon="1.022223">
        <ele>1626.7</ele>
        <time>2022-08-21T10:42:43Z</time>
      </trkpt>
      <trkpt lat="42.758573" lon="1.022104">
        <ele>1626.5</ele>
        <time>2022-08-21T10:42:50Z</time>
      </trkpt>
      <trkpt lat="42.758611" lon="1.021987">
        <ele>1626.9</ele>
        <time>2022-08-21T10:42:59Z</time>
      </trkpt>
      <trkpt lat="42.758662" lon="1.021870">
        <ele>1627.4</ele>
        <time>2022-08-21T10:43:09Z</time>
      </trkpt>
      <trkpt lat="42.758704" lon="1.021758">
        <ele>1627.9</ele>
        <time>2022-08-21T10:43:16Z</time>
      </trkpt>
      <trkpt lat="42.758766" lon="1.021643">
        <ele>1627.4</ele>
        <time>2022-08-21T10:43:24Z</time>
      </trkpt>
      <trkpt lat="42.758823" lon="1.021545">
        <ele>1626.9</ele>
        <time>2022-08-21T10:43:32Z</time>
      </trkpt>
      <trkpt lat="42.758872" lon="1.021435">
        <ele>1626.9</ele>
        <time>2022-08-21T10:43:41Z</time>
      </trkpt>
      <trkpt lat="42.758919" lon="1.021311">
        <ele>1626.7</ele>
        <time>2022-08-21T10:43:48Z</time>
      </trkpt>
      <trkpt lat="42.758956" lon="1.021197">
        <ele>1625.9</ele>
        <time>2022-08-21T10:43:56Z</time>
      </trkpt>
      <trkpt lat="42.759012" lon="1.021085">
        <ele>1625.0</ele>
        <time>2022-08-21T10:44:05Z</time>
      </trkpt>
      <trkpt lat="42.759070" lon="1.020968">
        <ele>1623.6</ele>
        <time>2022-08-21T10:44:28Z</time>
      </trkpt>
      <trkpt lat="42.759143" lon="1.020861">
        <ele>1622.8</ele>
        <time>2022-08-21T10:44:39Z</time>
      </trkpt>
      <trkpt lat="42.759186" lon="1.020750">
        <ele>1622.5</ele>
        <time>2022-08-21T10:44:47Z</time>
      </trkpt>
      <trkpt lat="42.759239" lon="1.020636">
        <ele>1621.7</ele>
        <time>2022-08-21T10:44:55Z</time>
      </trkpt>
      <trkpt lat="42.759295" lon="1.020532">
        <ele>1621.6</ele>
        <time>2022-08-21T10:45:05Z</time>
      </trkpt>
      <trkpt lat="42.759352" lon="1.020432">
        <ele>1621.9</ele>
        <time>2022-08-21T10:45:12Z</time>
      </trkpt>
      <trkpt lat="42.759418" lon="1.020316">
        <ele>1621.9</ele>
        <time>2022-08-21T10:45:20Z</time>
      </trkpt>
      <trkpt lat="42.759448" lon="1.020171">
        <ele>1621.6</ele>
        <time>2022-08-21T10:45:30Z</time>
      </trkpt>
      <trkpt lat="42.759474" lon="1.020044">
        <ele>1621.5</ele>
        <time>2022-08-21T10:45:37Z</time>
      </trkpt>
      <trkpt lat="42.759514" lon="1.019913">
        <ele>1621.6</ele>
        <time>2022-08-21T10:45:46Z</time>
      </trkpt>
      <trkpt lat="42.759541" lon="1.019787">
        <ele>1622.2</ele>
        <time>2022-08-21T10:45:55Z</time>
      </trkpt>
      <trkpt lat="42.759572" lon="1.019672">
        <ele>1622.9</ele>
        <time>2022-08-21T10:46:04Z</time>
      </trkpt>
      <trkpt lat="42.759599" lon="1.019528">
        <ele>1623.0</ele>
        <time>2022-08-21T10:46:36Z</time>
      </trkpt>
      <trkpt lat="42.759637" lon="1.019402">
        <ele>1622.9</ele>
        <time>2022-08-21T10:46:46Z</time>
      </trkpt>
      <trkpt lat="42.759662" lon="1.019272">
        <ele>1622.9</ele>
        <time>2022-08-21T10:46:54Z</time>
      </trkpt>
      <trkpt lat="42.759691" lon="1.019141">
        <ele>1622.7</ele>
        <time>2022-08-21T10:47:01Z</time>
      </trkpt>
      <trkpt lat="42.759735" lon="1.019019">
        <ele>1622.5</ele>
        <time>2022-08-21T10:47:11Z</time>
      </trkpt>
      <trkpt lat="42.759760" lon="1.018879">
        <ele>1622.1</ele>
        <time>2022-08-21T10:47:19Z</time>
      </trkpt>
      <trkpt lat="42.759776" lon="1.018740">
        <ele>1622.0</ele>
        <time>2022-08-21T10:47:29Z</time>
      </trkpt>
      <trkpt lat="42.759783" lon="1.018600">
        <ele>1622.4</ele>
        <time>2022-08-21T10:47:39Z</time>
      </trkpt>
      <trkpt lat="42.759808" lon="1.018458">
        <ele>1623.0</ele>
        <time>2022-08-21T10:47:49Z</time>
      </trkpt>
      <trkpt lat="42.759836" lon="1.018329">
        <ele>1623.0</ele>
        <time>2022-08-21T10:47:58Z</time>
      </trkpt>
      <trkpt lat="42.759861" lon="1.018212">
        <ele>1623.7</ele>
        <time>2022-08-21T10:48:05Z</time>
      </trkpt>
      <trkpt lat="42.759857" lon="1.018061">
        <ele>1623.8</ele>
        <time>2022-08-21T10:48:15Z</time>
      </trkpt>
      <trkpt lat="42.759830" lon="1.017921">
        <ele>1623.2</ele>
        <time>2022-08-21T10:48:26Z</time>
      </trkpt>
      <trkpt lat="42.759831" lon="1.017793">
        <ele>1622.7</ele>
        <time>2022-08-21T10:48:36Z</time>
      </trkpt>
      <trkpt lat="42.759856" lon="1.017669">
        <ele>1623.5</ele>
        <time>2022-08-21T10:48:47Z</time>
      </trkpt>
      <trkpt lat="42.759871" lon="1.017540">
        <ele>1624.1</ele>
        <time>2022-08-21T10:48:58Z</time>
      </trkpt>
      <trkpt lat="42.759912" lon="1.017420">
        <ele>1624.4</ele>
        <time>2022-08-21T10:49:09Z</time>
      </trkpt>
      <trkpt lat="42.759962" lon="1.017302">
        <ele>1625.5</ele>
        <time>2022-08-21T10:49:18Z</time>
      </trkpt>
      <trkpt lat="42.759997" lon="1.017184">
        <ele>1625.8</ele>
        <time>2022-08-21T10:49:26Z</time>
      </trkpt>
      <trkpt lat="42.760040" lon="1.017058">
        <ele>1626.7</ele>
        <time>2022-08-21T10:49:37Z</time>
      </trkpt>
      <trkpt lat="42.760076" lon="1.016942">
        <ele>1627.0</ele>
        <time>2022-08-21T10:49:46Z</time>
      </trkpt>
      <trkpt lat="42.760112" lon="1.016825">
        <ele>1626.5</ele>
        <time>2022-08-21T10:49:57Z</time>
      </trkpt>
      <trkpt lat="42.760142" lon="1.016696">
        <ele>1627.9</ele>
        <time>2022-08-21T10:50:07Z</time>
      </trkpt>
      <trkpt lat="42.760164" lon="1.016572">
        <ele>1628.0</ele>
        <time>2022-08-21T10:50:16Z</time>
      </trkpt>
      <trkpt lat="42.760188" lon="1.016450">
        <ele>1628.6</ele>
        <time>2022-08-21T10:50:25Z</time>
      </trkpt>
      <trkpt lat="42.760191" lon="1.016316">
        <ele>1628.7</ele>
        <time>2022-08-21T10:50:34Z</time>
      </trkpt>
      <trkpt lat="42.760192" lon="1.016191">
        <ele>1628.6</ele>
        <time>2022-08-21T10:50:42Z</time>
      </trkpt>
      <trkpt lat="42.760168" lon="1.016056">
        <ele>1629.0</ele>
        <time>2022-08-21T10:50:53Z</time>
      </trkpt>
      <trkpt lat="42.760162" lon="1.015920">
        <ele>1629.5</ele>
        <time>2022-08-21T10:51:02Z</time>
      </trkpt>
      <trkpt lat="42.760144" lon="1.015795">
        <ele>1628.7</ele>
        <time>2022-08-21T10:51:10Z</time>
      </trkpt>
      <trkpt lat="42.760122" lon="1.015672">
        <ele>1629.6</ele>
        <time>2022-08-21T10:51:17Z</time>
      </trkpt>
      <trkpt lat="42.760090" lon="1.015548">
        <ele>1630.0</ele>
        <time>2022-08-21T10:51:24Z</time>
      </trkpt>
      <trkpt lat="42.760102" lon="1.015419">
        <ele>1630.2</ele>
        <time>2022-08-21T10:51:33Z</time>
      </trkpt>
      <trkpt lat="42.760138" lon="1.015287">
        <ele>1630.4</ele>
        <time>2022-08-21T10:51:42Z</time>
      </trkpt>
      <trkpt lat="42.760160" lon="1.015156">
        <ele>1630.6</ele>
        <time>2022-08-21T10:51:51Z</time>
      </trkpt>
      <trkpt lat="42.760167" lon="1.015030">
        <ele>1630.8</ele>
        <time>2022-08-21T10:51:59Z</time>
      </trkpt>
      <trkpt lat="42.760185" lon="1.014896">
        <ele>1630.2</ele>
        <time>2022-08-21T10:52:08Z</time>
      </trkpt>
      <trkpt lat="42.760230" lon="1.014786">
        <ele>1629.8</ele>
        <time>2022-08-21T10:52:17Z</time>
      </trkpt>
      <trkpt lat="42.760244" lon="1.014636">
        <ele>1629.7</ele>
        <time>2022-08-21T10:52:26Z</time>
      </trkpt>
      <trkpt lat="42.760220" lon="1.014514">
        <ele>1630.8</ele>
        <time>2022-08-21T10:52:36Z</time>
      </trkpt>
      <trkpt lat="42.760173" lon="1.014400">
        <ele>1631.6</ele>
        <time>2022-08-21T10:52:47Z</time>
      </trkpt>
      <trkpt lat="42.760134" lon="1.014288">
        <ele>1632.6</ele>
        <time>2022-08-21T10:54:13Z</time>
      </trkpt>
      <trkpt lat="42.760130" lon="1.014163">
        <ele>1633.8</ele>
        <time>2022-08-21T10:54:25Z</time>
      </trkpt>
      <trkpt lat="42.760105" lon="1.014044">
        <ele>1634.0</ele>
        <time>2022-08-21T10:54:35Z</time>
      </trkpt>
      <trkpt lat="42.760094" lon="1.013912">
        <ele>1634.2</ele>
        <time>2022-08-21T10:54:44Z</time>
      </trkpt>
      <trkpt lat="42.760081" lon="1.013783">
        <ele>1634.1</ele>
        <time>2022-08-21T10:54:52Z</time>
      </trkpt>
      <trkpt lat="42.760075" lon="1.013643">
        <ele>1633.0</ele>
        <time>2022-08-21T10:55:02Z</time>
      </trkpt>
      <trkpt lat="42.760131" lon="1.013530">
        <ele>1633.5</ele>
        <time>2022-08-21T10:55:09Z</time>
      </trkpt>
      <trkpt lat="42.760150" lon="1.013403">
        <ele>1633.8</ele>
        <time>2022-08-21T10:55:17Z</time>
      </trkpt>
      <trkpt lat="42.760182" lon="1.013270">
        <ele>1634.1</ele>
        <time>2022-08-21T10:55:25Z</time>
      </trkpt>
      <trkpt lat="42.760152" lon="1.013150">
        <ele>1634.7</ele>
        <time>2022-08-21T10:55:34Z</time>
      </trkpt>
      <trkpt lat="42.760151" lon="1.013014">
        <ele>1635.8</ele>
        <time>2022-08-21T10:55:44Z</time>
      </trkpt>
      <trkpt lat="42.760164" lon="1.012886">
        <ele>1636.6</ele>
        <time>2022-08-21T10:55:54Z</time>
      </trkpt>
      <trkpt lat="42.760153" lon="1.012751">
        <ele>1636.9</ele>
        <time>2022-08-21T10:56:03Z</time>
      </trkpt>
      <trkpt lat="42.760149" lon="1.012627">
        <ele>1636.6</ele>
        <time>2022-08-21T10:56:12Z</time>
      </trkpt>
      <trkpt lat="42.760155" lon="1.012491">
        <ele>1636.7</ele>
        <time>2022-08-21T10:56:20Z</time>
      </trkpt>
      <trkpt lat="42.760201" lon="1.012381">
        <ele>1636.7</ele>
        <time>2022-08-21T10:56:29Z</time>
      </trkpt>
      <trkpt lat="42.760227" lon="1.012257">
        <ele>1637.0</ele>
        <time>2022-08-21T10:56:37Z</time>
      </trkpt>
      <trkpt lat="42.760310" lon="1.012179">
        <ele>1635.8</ele>
        <time>2022-08-21T10:56:44Z</time>
      </trkpt>
      <trkpt lat="42.760307" lon="1.012047">
        <ele>1635.1</ele>
        <time>2022-08-21T10:56:53Z</time>
      </trkpt>
      <trkpt lat="42.760286" lon="1.011924">
        <ele>1634.5</ele>
        <time>2022-08-21T10:57:02Z</time>
      </trkpt>
      <trkpt lat="42.760220" lon="1.011839">
        <ele>1634.6</ele>
        <time>2022-08-21T10:57:13Z</time>
      </trkpt>
      <trkpt lat="42.760156" lon="1.011739">
        <ele>1634.7</ele>
        <time>2022-08-21T10:57:23Z</time>
      </trkpt>
      <trkpt lat="42.760082" lon="1.011652">
        <ele>1634.7</ele>
        <time>2022-08-21T10:57:33Z</time>
      </trkpt>
      <trkpt lat="42.760019" lon="1.011558">
        <ele>1634.8</ele>
        <time>2022-08-21T10:57:43Z</time>
      </trkpt>
      <trkpt lat="42.759994" lon="1.011438">
        <ele>1634.7</ele>
        <time>2022-08-21T10:57:59Z</time>
      </trkpt>
      <trkpt lat="42.759989" lon="1.011312">
        <ele>1634.8</ele>
        <time>2022-08-21T10:58:09Z</time>
      </trkpt>
      <trkpt lat="42.760007" lon="1.011186">
        <ele>1635.5</ele>
        <time>2022-08-21T10:58:19Z</time>
      </trkpt>
      <trkpt lat="42.760037" lon="1.011069">
        <ele>1636.1</ele>
        <time>2022-08-21T10:58:28Z</time>
      </trkpt>
      <trkpt lat="42.760067" lon="1.010950">
        <ele>1636.3</ele>
        <time>2022-08-21T10:58:36Z</time>
      </trkpt>
      <trkpt lat="42.760106" lon="1.010830">
        <ele>1636.7</ele>
        <time>2022-08-21T10:58:45Z</time>
      </trkpt>
      <trkpt lat="42.760113" lon="1.010702">
        <ele>1637.7</ele>
        <time>2022-08-21T10:58:54Z</time>
      </trkpt>
      <trkpt lat="42.760129" lon="1.010580">
        <ele>1637.9</ele>
        <time>2022-08-21T10:59:03Z</time>
      </trkpt>
      <trkpt lat="42.760137" lon="1.010450">
        <ele>1638.1</ele>
        <time>2022-08-21T10:59:19Z</time>
      </trkpt>
      <trkpt lat="42.760146" lon="1.010320">
        <ele>1638.1</ele>
        <time>2022-08-21T10:59:33Z</time>
      </trkpt>
      <trkpt lat="42.760091" lon="1.010222">
        <ele>1639.1</ele>
        <time>2022-08-21T10:59:49Z</time>
      </trkpt>
      <trkpt lat="42.760000" lon="1.010172">
        <ele>1640.2</ele>
        <time>2022-08-21T10:59:59Z</time>
      </trkpt>
      <trkpt lat="42.759912" lon="1.010132">
        <ele>1641.2</ele>
        <time>2022-08-21T11:00:11Z</time>
      </trkpt>
      <trkpt lat="42.760004" lon="1.010188">
        <ele>1640.0</ele>
        <time>2022-08-21T11:00:50Z</time>
      </trkpt>
      <trkpt lat="42.760073" lon="1.010104">
        <ele>1639.3</ele>
        <time>2022-08-21T11:01:05Z</time>
      </trkpt>
      <trkpt lat="42.760142" lon="1.010011">
        <ele>1638.6</ele>
        <time>2022-08-21T11:01:17Z</time>
      </trkpt>
      <trkpt lat="42.760166" lon="1.009892">
        <ele>1638.3</ele>
        <time>2022-08-21T11:01:26Z</time>
      </trkpt>
      <trkpt lat="42.760175" lon="1.009768">
        <ele>1637.4</ele>
        <time>2022-08-21T11:01:35Z</time>
      </trkpt>
      <trkpt lat="42.760168" lon="1.009634">
        <ele>1637.8</ele>
        <time>2022-08-21T11:01:45Z</time>
      </trkpt>
      <trkpt lat="42.760190" lon="1.009502">
        <ele>1638.3</ele>
        <time>2022-08-21T11:01:56Z</time>
      </trkpt>
      <trkpt lat="42.760214" lon="1.009378">
        <ele>1638.0</ele>
        <time>2022-08-21T11:02:06Z</time>
      </trkpt>
      <trkpt lat="42.760224" lon="1.009246">
        <ele>1638.6</ele>
        <time>2022-08-21T11:02:18Z</time>
      </trkpt>
      <trkpt lat="42.760252" lon="1.009118">
        <ele>1638.7</ele>
        <time>2022-08-21T11:02:29Z</time>
      </trkpt>
      <trkpt lat="42.760293" lon="1.009004">
        <ele>1639.2</ele>
        <time>2022-08-21T11:02:38Z</time>
      </trkpt>
      <trkpt lat="42.760316" lon="1.008872">
        <ele>1639.7</ele>
        <time>2022-08-21T11:02:47Z</time>
      </trkpt>
      <trkpt lat="42.760356" lon="1.008759">
        <ele>1639.5</ele>
        <time>2022-08-21T11:02:55Z</time>
      </trkpt>
      <trkpt lat="42.760390" lon="1.008643">
        <ele>1640.1</ele>
        <time>2022-08-21T11:03:08Z</time>
      </trkpt>
      <trkpt lat="42.760414" lon="1.008516">
        <ele>1640.3</ele>
        <time>2022-08-21T11:03:17Z</time>
      </trkpt>
      <trkpt lat="42.760425" lon="1.008387">
        <ele>1640.8</ele>
        <time>2022-08-21T11:03:26Z</time>
      </trkpt>
      <trkpt lat="42.760462" lon="1.008267">
        <ele>1641.4</ele>
        <time>2022-08-21T11:03:34Z</time>
      </trkpt>
      <trkpt lat="42.760488" lon="1.008146">
        <ele>1641.2</ele>
        <time>2022-08-21T11:03:43Z</time>
      </trkpt>
      <trkpt lat="42.760510" lon="1.008023">
        <ele>1641.6</ele>
        <time>2022-08-21T11:03:51Z</time>
      </trkpt>
      <trkpt lat="42.760525" lon="1.007898">
        <ele>1641.6</ele>
        <time>2022-08-21T11:04:00Z</time>
      </trkpt>
      <trkpt lat="42.760521" lon="1.007776">
        <ele>1641.7</ele>
        <time>2022-08-21T11:04:10Z</time>
      </trkpt>
      <trkpt lat="42.760506" lon="1.007654">
        <ele>1642.5</ele>
        <time>2022-08-21T11:04:28Z</time>
      </trkpt>
      <trkpt lat="42.760471" lon="1.007537">
        <ele>1643.1</ele>
        <time>2022-08-21T11:04:40Z</time>
      </trkpt>
      <trkpt lat="42.760466" lon="1.007409">
        <ele>1643.7</ele>
        <time>2022-08-21T11:04:51Z</time>
      </trkpt>
      <trkpt lat="42.760448" lon="1.007275">
        <ele>1644.6</ele>
        <time>2022-08-21T11:05:03Z</time>
      </trkpt>
      <trkpt lat="42.760456" lon="1.007141">
        <ele>1644.0</ele>
        <time>2022-08-21T11:05:15Z</time>
      </trkpt>
      <trkpt lat="42.760451" lon="1.007008">
        <ele>1644.0</ele>
        <time>2022-08-21T11:05:27Z</time>
      </trkpt>
      <trkpt lat="42.760494" lon="1.006877">
        <ele>1642.7</ele>
        <time>2022-08-21T11:05:44Z</time>
      </trkpt>
      <trkpt lat="42.760538" lon="1.006763">
        <ele>1642.1</ele>
        <time>2022-08-21T11:05:51Z</time>
      </trkpt>
      <trkpt lat="42.760514" lon="1.006642">
        <ele>1643.2</ele>
        <time>2022-08-21T11:06:14Z</time>
      </trkpt>
      <trkpt lat="42.760557" lon="1.006534">
        <ele>1645.3</ele>
        <time>2022-08-21T11:07:02Z</time>
      </trkpt>
      <trkpt lat="42.760636" lon="1.006467">
        <ele>1645.3</ele>
        <time>2022-08-21T11:07:12Z</time>
      </trkpt>
      <trkpt lat="42.760657" lon="1.006348">
        <ele>1645.7</ele>
        <time>2022-08-21T11:07:22Z</time>
      </trkpt>
      <trkpt lat="42.760639" lon="1.006224">
        <ele>1646.0</ele>
        <time>2022-08-21T11:07:29Z</time>
      </trkpt>
      <trkpt lat="42.760572" lon="1.006129">
        <ele>1646.9</ele>
        <time>2022-08-21T11:07:39Z</time>
      </trkpt>
      <trkpt lat="42.760661" lon="1.006018">
        <ele>1647.3</ele>
        <time>2022-08-21T11:07:48Z</time>
      </trkpt>
      <trkpt lat="42.760695" lon="1.005889">
        <ele>1647.5</ele>
        <time>2022-08-21T11:08:01Z</time>
      </trkpt>
      <trkpt lat="42.760759" lon="1.005800">
        <ele>1647.8</ele>
        <time>2022-08-21T11:08:12Z</time>
      </trkpt>
      <trkpt lat="42.760810" lon="1.005690">
        <ele>1648.1</ele>
        <time>2022-08-21T11:08:21Z</time>
      </trkpt>
      <trkpt lat="42.760867" lon="1.005593">
        <ele>1648.3</ele>
        <time>2022-08-21T11:08:28Z</time>
      </trkpt>
      <trkpt lat="42.760927" lon="1.005498">
        <ele>1648.3</ele>
        <time>2022-08-21T11:08:33Z</time>
      </trkpt>
      <trkpt lat="42.760977" lon="1.005391">
        <ele>1648.9</ele>
        <time>2022-08-21T11:08:43Z</time>
      </trkpt>
      <trkpt lat="42.760988" lon="1.005262">
        <ele>1649.5</ele>
        <time>2022-08-21T11:08:54Z</time>
      </trkpt>
      <trkpt lat="42.761047" lon="1.005155">
        <ele>1649.5</ele>
        <time>2022-08-21T11:09:01Z</time>
      </trkpt>
      <trkpt lat="42.761031" lon="1.005031">
        <ele>1650.0</ele>
        <time>2022-08-21T11:09:14Z</time>
      </trkpt>
      <trkpt lat="42.761037" lon="1.004900">
        <ele>1650.3</ele>
        <time>2022-08-21T11:09:23Z</time>
      </trkpt>
      <trkpt lat="42.761093" lon="1.004798">
        <ele>1650.3</ele>
        <time>2022-08-21T11:09:30Z</time>
      </trkpt>
      <trkpt lat="42.761105" lon="1.004671">
        <ele>1650.4</ele>
        <time>2022-08-21T11:09:39Z</time>
      </trkpt>
      <trkpt lat="42.761094" lon="1.004545">
        <ele>1650.2</ele>
        <time>2022-08-21T11:09:48Z</time>
      </trkpt>
      <trkpt lat="42.761100" lon="1.004408">
        <ele>1650.0</ele>
        <time>2022-08-21T11:09:57Z</time>
      </trkpt>
      <trkpt lat="42.761099" lon="1.004274">
        <ele>1649.9</ele>
        <time>2022-08-21T11:10:04Z</time>
      </trkpt>
      <trkpt lat="42.761122" lon="1.004149">
        <ele>1649.6</ele>
        <time>2022-08-21T11:10:11Z</time>
      </trkpt>
      <trkpt lat="42.761061" lon="1.004034">
        <ele>1649.8</ele>
        <time>2022-08-21T11:10:19Z</time>
      </trkpt>
      <trkpt lat="42.761023" lon="1.003921">
        <ele>1648.9</ele>
        <time>2022-08-21T11:10:42Z</time>
      </trkpt>
      <trkpt lat="42.761029" lon="1.003798">
        <ele>1649.9</ele>
        <time>2022-08-21T11:11:08Z</time>
      </trkpt>
      <trkpt lat="42.761078" lon="1.003689">
        <ele>1651.3</ele>
        <time>2022-08-21T11:11:17Z</time>
      </trkpt>
      <trkpt lat="42.761082" lon="1.003555">
        <ele>1652.0</ele>
        <time>2022-08-21T11:11:39Z</time>
      </trkpt>
      <trkpt lat="42.761042" lon="1.003440">
        <ele>1652.6</ele>
        <time>2022-08-21T11:11:49Z</time>
      </trkpt>
      <trkpt lat="42.761018" lon="1.003305">
        <ele>1654.4</ele>
        <time>2022-08-21T11:12:03Z</time>
      </trkpt>
      <trkpt lat="42.760977" lon="1.003168">
        <ele>1656.5</ele>
        <time>2022-08-21T11:12:31Z</time>
      </trkpt>
      <trkpt lat="42.760998" lon="1.003048">
        <ele>1657.5</ele>
        <time>2022-08-21T11:12:42Z</time>
      </trkpt>
      <trkpt lat="42.760933" lon="1.002957">
        <ele>1659.0</ele>
        <time>2022-08-21T11:13:02Z</time>
      </trkpt>
      <trkpt lat="42.760877" lon="1.002860">
        <ele>1660.9</ele>
        <time>2022-08-21T11:13:39Z</time>
      </trkpt>
      <trkpt lat="42.760861" lon="1.002733">
        <ele>1662.4</ele>
        <time>2022-08-21T11:13:58Z</time>
      </trkpt>
      <trkpt lat="42.760869" lon="1.002606">
        <ele>1663.9</ele>
        <time>2022-08-21T11:14:09Z</time>
      </trkpt>
      <trkpt lat="42.760863" lon="1.002481">
        <ele>1664.6</ele>
        <time>2022-08-21T11:14:20Z</time>
      </trkpt>
      <trkpt lat="42.760867" lon="1.002350">
        <ele>1665.5</ele>
        <time>2022-08-21T11:14:34Z</time>
      </trkpt>
      <trkpt lat="42.760851" lon="1.002228">
        <ele>1665.7</ele>
        <time>2022-08-21T11:14:44Z</time>
      </trkpt>
      <trkpt lat="42.760813" lon="1.002113">
        <ele>1666.0</ele>
        <time>2022-08-21T11:14:55Z</time>
      </trkpt>
      <trkpt lat="42.760750" lon="1.002012">
        <ele>1666.3</ele>
        <time>2022-08-21T11:15:05Z</time>
      </trkpt>
      <trkpt lat="42.760702" lon="1.001900">
        <ele>1666.3</ele>
        <time>2022-08-21T11:15:13Z</time>
      </trkpt>
      <trkpt lat="42.760673" lon="1.001778">
        <ele>1666.2</ele>
        <time>2022-08-21T11:15:30Z</time>
      </trkpt>
      <trkpt lat="42.760655" lon="1.001646">
        <ele>1667.0</ele>
        <time>2022-08-21T11:15:41Z</time>
      </trkpt>
      <trkpt lat="42.760645" lon="1.001523">
        <ele>1668.7</ele>
        <time>2022-08-21T11:16:03Z</time>
      </trkpt>
      <trkpt lat="42.760642" lon="1.001395">
        <ele>1668.6</ele>
        <time>2022-08-21T11:16:23Z</time>
      </trkpt>
      <trkpt lat="42.760659" lon="1.001266">
        <ele>1668.5</ele>
        <time>2022-08-21T11:16:33Z</time>
      </trkpt>
      <trkpt lat="42.760667" lon="1.001143">
        <ele>1668.5</ele>
        <time>2022-08-21T11:16:42Z</time>
      </trkpt>
      <trkpt lat="42.760645" lon="1.001017">
        <ele>1668.7</ele>
        <time>2022-08-21T11:16:58Z</time>
      </trkpt>
      <trkpt lat="42.760650" lon="1.000894">
        <ele>1668.0</ele>
        <time>2022-08-21T11:17:08Z</time>
      </trkpt>
      <trkpt lat="42.760680" lon="1.000753">
        <ele>1667.8</ele>
        <time>2022-08-21T11:17:17Z</time>
      </trkpt>
      <trkpt lat="42.760760" lon="1.000686">
        <ele>1666.2</ele>
        <time>2022-08-21T11:17:32Z</time>
      </trkpt>
      <trkpt lat="42.760739" lon="1.000559">
        <ele>1666.2</ele>
        <time>2022-08-21T11:17:49Z</time>
      </trkpt>
      <trkpt lat="42.760745" lon="1.000428">
        <ele>1667.3</ele>
        <time>2022-08-21T11:17:58Z</time>
      </trkpt>
      <trkpt lat="42.760778" lon="1.000310">
        <ele>1668.6</ele>
        <time>2022-08-21T11:18:12Z</time>
      </trkpt>
      <trkpt lat="42.760816" lon="1.000187">
        <ele>1669.3</ele>
        <time>2022-08-21T11:18:24Z</time>
      </trkpt>
      <trkpt lat="42.760853" lon="1.000067">
        <ele>1669.5</ele>
        <time>2022-08-21T11:18:33Z</time>
      </trkpt>
      <trkpt lat="42.760870" lon="0.999930">
        <ele>1668.8</ele>
        <time>2022-08-21T11:18:44Z</time>
      </trkpt>
      <trkpt lat="42.760886" lon="0.999805">
        <ele>1667.8</ele>
        <time>2022-08-21T11:19:21Z</time>
      </trkpt>
      <trkpt lat="42.760863" lon="0.999682">
        <ele>1666.8</ele>
        <time>2022-08-21T11:19:30Z</time>
      </trkpt>
      <trkpt lat="42.760825" lon="0.999566">
        <ele>1666.5</ele>
        <time>2022-08-21T11:19:38Z</time>
      </trkpt>
      <trkpt lat="42.760820" lon="0.999439">
        <ele>1666.6</ele>
        <time>2022-08-21T11:19:49Z</time>
      </trkpt>
      <trkpt lat="42.760790" lon="0.999313">
        <ele>1667.4</ele>
        <time>2022-08-21T11:20:02Z</time>
      </trkpt>
      <trkpt lat="42.760721" lon="0.999230">
        <ele>1667.1</ele>
        <time>2022-08-21T11:21:13Z</time>
      </trkpt>
      <trkpt lat="42.760676" lon="0.999120">
        <ele>1667.2</ele>
        <time>2022-08-21T11:21:36Z</time>
      </trkpt>
      <trkpt lat="42.760616" lon="0.999025">
        <ele>1667.6</ele>
        <time>2022-08-21T11:21:45Z</time>
      </trkpt>
      <trkpt lat="42.760593" lon="0.998904">
        <ele>1667.6</ele>
        <time>2022-08-21T11:21:54Z</time>
      </trkpt>
      <trkpt lat="42.760564" lon="0.998769">
        <ele>1667.1</ele>
        <time>2022-08-21T11:22:04Z</time>
      </trkpt>
      <trkpt lat="42.760518" lon="0.998657">
        <ele>1667.3</ele>
        <time>2022-08-21T11:22:14Z</time>
      </trkpt>
      <trkpt lat="42.760468" lon="0.998545">
        <ele>1667.7</ele>
        <time>2022-08-21T11:22:22Z</time>
      </trkpt>
      <trkpt lat="42.760432" lon="0.998432">
        <ele>1668.0</ele>
        <time>2022-08-21T11:22:39Z</time>
      </trkpt>
      <trkpt lat="42.760395" lon="0.998312">
        <ele>1667.8</ele>
        <time>2022-08-21T11:22:58Z</time>
      </trkpt>
      <trkpt lat="42.760348" lon="0.998198">
        <ele>1669.1</ele>
        <time>2022-08-21T11:23:43Z</time>
      </trkpt>
      <trkpt lat="42.760322" lon="0.998073">
        <ele>1668.8</ele>
        <time>2022-08-21T11:23:58Z</time>
      </trkpt>
      <trkpt lat="42.760283" lon="0.997961">
        <ele>1669.3</ele>
        <time>2022-08-21T11:24:08Z</time>
      </trkpt>
      <trkpt lat="42.760251" lon="0.997845">
        <ele>1670.2</ele>
        <time>2022-08-21T11:24:23Z</time>
      </trkpt>
      <trkpt lat="42.760200" lon="0.997728">
        <ele>1671.3</ele>
        <time>2022-08-21T11:24:34Z</time>
      </trkpt>
      <trkpt lat="42.760153" lon="0.997610">
        <ele>1672.0</ele>
        <time>2022-08-21T11:24:44Z</time>
      </trkpt>
      <trkpt lat="42.760145" lon="0.997486">
        <ele>1672.6</ele>
        <time>2022-08-21T11:24:54Z</time>
      </trkpt>
      <trkpt lat="42.760118" lon="0.997357">
        <ele>1672.9</ele>
        <time>2022-08-21T11:25:03Z</time>
      </trkpt>
      <trkpt lat="42.760074" lon="0.997248">
        <ele>1673.8</ele>
        <time>2022-08-21T11:25:17Z</time>
      </trkpt>
      <trkpt lat="42.760066" lon="0.997121">
        <ele>1674.0</ele>
        <time>2022-08-21T11:25:28Z</time>
      </trkpt>
      <trkpt lat="42.760021" lon="0.996998">
        <ele>1674.1</ele>
        <time>2022-08-21T11:25:39Z</time>
      </trkpt>
      <trkpt lat="42.759966" lon="0.996888">
        <ele>1675.0</ele>
        <time>2022-08-21T11:25:48Z</time>
      </trkpt>
      <trkpt lat="42.759913" lon="0.996789">
        <ele>1674.6</ele>
        <time>2022-08-21T11:25:57Z</time>
      </trkpt>
      <trkpt lat="42.759860" lon="0.996680">
        <ele>1674.7</ele>
        <time>2022-08-21T11:26:07Z</time>
      </trkpt>
      <trkpt lat="42.759808" lon="0.996573">
        <ele>1674.8</ele>
        <time>2022-08-21T11:26:16Z</time>
      </trkpt>
      <trkpt lat="42.759757" lon="0.996463">
        <ele>1674.1</ele>
        <time>2022-08-21T11:26:27Z</time>
      </trkpt>
      <trkpt lat="42.759712" lon="0.996355">
        <ele>1673.2</ele>
        <time>2022-08-21T11:26:38Z</time>
      </trkpt>
      <trkpt lat="42.759670" lon="0.996237">
        <ele>1672.2</ele>
        <time>2022-08-21T11:26:49Z</time>
      </trkpt>
      <trkpt lat="42.759641" lon="0.996116">
        <ele>1672.0</ele>
        <time>2022-08-21T11:26:59Z</time>
      </trkpt>
      <trkpt lat="42.759596" lon="0.996002">
        <ele>1672.4</ele>
        <time>2022-08-21T11:27:09Z</time>
      </trkpt>
      <trkpt lat="42.759564" lon="0.995886">
        <ele>1671.8</ele>
        <time>2022-08-21T11:27:20Z</time>
      </trkpt>
      <trkpt lat="42.759516" lon="0.995768">
        <ele>1671.9</ele>
        <time>2022-08-21T11:27:32Z</time>
      </trkpt>
      <trkpt lat="42.759432" lon="0.995706">
        <ele>1672.1</ele>
        <time>2022-08-21T11:27:51Z</time>
      </trkpt>
      <trkpt lat="42.759375" lon="0.995608">
        <ele>1672.5</ele>
        <time>2022-08-21T11:28:00Z</time>
      </trkpt>
      <trkpt lat="42.759306" lon="0.995513">
        <ele>1672.4</ele>
        <time>2022-08-21T11:28:10Z</time>
      </trkpt>
      <trkpt lat="42.759224" lon="0.995432">
        <ele>1672.5</ele>
        <time>2022-08-21T11:28:20Z</time>
      </trkpt>
      <trkpt lat="42.759172" lon="0.995321">
        <ele>1672.7</ele>
        <time>2022-08-21T11:28:30Z</time>
      </trkpt>
      <trkpt lat="42.759113" lon="0.995219">
        <ele>1672.6</ele>
        <time>2022-08-21T11:28:39Z</time>
      </trkpt>
      <trkpt lat="42.759072" lon="0.995100">
        <ele>1673.4</ele>
        <time>2022-08-21T11:28:54Z</time>
      </trkpt>
      <trkpt lat="42.759033" lon="0.994985">
        <ele>1673.4</ele>
        <time>2022-08-21T11:29:04Z</time>
      </trkpt>
      <trkpt lat="42.758965" lon="0.994891">
        <ele>1674.1</ele>
        <time>2022-08-21T11:29:15Z</time>
      </trkpt>
      <trkpt lat="42.758904" lon="0.994791">
        <ele>1674.3</ele>
        <time>2022-08-21T11:29:25Z</time>
      </trkpt>
      <trkpt lat="42.758985" lon="0.994729">
        <ele>1674.9</ele>
        <time>2022-08-21T11:29:59Z</time>
      </trkpt>
      <trkpt lat="42.759015" lon="0.994716">
        <ele>1675.1</ele>
        <time>2022-08-21T11:30:03Z</time>
      </trkpt>
    </trkseg>
  </trk>
</gpx>
